PWSweather.com
Personal Weather Stations
Station Observations
GRACELEHAN
The Grace C. Lehan Memorial Weather Station, West Hartford, CT 06107

The Grace C. Lehan Memorial Weather StationWest Hartford, CT 06107

Lat: 41.745629, Lon: -72.7443516

Elevation: 136

Station Type: Davis Vantage Pro2 Plus

High Low Average
Temperature 69.5°F20.8°C 53.7°F12.1°C 60.8°F16.0°C
Dew Point 63.3°F17.4°C 42.2°F5.7°C 56.4°F13.6°C
Winds 17.0 mph 27.4 kmh Calm Calm 2.0 mph SSW3.2 kmh SSW
Wind Gusts 23.0 mph37.0 kmh -- 5.0 mph8.0 kmh
Humidity 96% 65% 86%
Pressure 29.67 in1004.7 mb 29.42 in996.3 mb -
Precipitation 0.01 in0.3 mm - -
Hour Temp Dew Point Humidity Winds Wind Gusts Pressure Precip Precip Rate Daily Precip Total
06:02 AM 59.7°F15.4°C 58.3°F14.6°C 95% Calm Calm -- 29.67 in1004.7 mb 0.01 in0.3 mm 0.30 in7.6 mm 0.01 in0.3 mm
06:04 AM 59.7°F15.4°C 58.3°F14.6°C 95% Calm Calm -- 29.67 in1004.7 mb 0.01 in0.3 mm 0.00 in0.0 mm 0.01 in0.3 mm
06:06 AM 59.6°F15.3°C 58.2°F14.6°C 95% Calm Calm -- 29.67 in1004.7 mb 0.01 in0.3 mm 0.00 in0.0 mm 0.01 in0.3 mm
06:08 AM 59.6°F15.3°C 58.2°F14.6°C 95% Calm Calm -- 29.67 in1004.7 mb 0.01 in0.3 mm 0.00 in0.0 mm 0.01 in0.3 mm
06:10 AM 59.6°F15.3°C 58.2°F14.6°C 95% Calm Calm -- 29.67 in1004.7 mb 0.01 in0.3 mm 0.00 in0.0 mm 0.01 in0.3 mm
06:12 AM 59.6°F15.3°C 58.2°F14.6°C 95% Calm Calm -- 29.67 in1004.7 mb 0.01 in0.3 mm 0.00 in0.0 mm 0.01 in0.3 mm
06:14 AM 59.5°F15.3°C 58.1°F14.5°C 95% Calm Calm -- 29.67 in1004.7 mb 0.01 in0.3 mm 0.00 in0.0 mm 0.01 in0.3 mm
06:16 AM 59.5°F15.3°C 57.8°F14.3°C 94% Calm Calm -- 29.67 in1004.7 mb 0.01 in0.3 mm 0.00 in0.0 mm 0.01 in0.3 mm
06:18 AM 59.5°F15.3°C 57.8°F14.3°C 94% Calm Calm -- 29.67 in1004.7 mb 0.01 in0.3 mm 0.00 in0.0 mm 0.01 in0.3 mm
06:20 AM 59.5°F15.3°C 58.1°F14.5°C 95% Calm Calm -- 29.67 in1004.7 mb 0.01 in0.3 mm 0.00 in0.0 mm 0.01 in0.3 mm
06:22 AM 59.4°F15.2°C 58.0°F14.4°C 95% Calm Calm -- 29.67 in1004.7 mb 0.01 in0.3 mm 0.00 in0.0 mm 0.01 in0.3 mm
06:24 AM 59.4°F15.2°C 58.0°F14.4°C 95% Calm Calm -- 29.67 in1004.7 mb 0.01 in0.3 mm 0.00 in0.0 mm 0.01 in0.3 mm
06:26 AM 59.4°F15.2°C 58.0°F14.4°C 95% Calm Calm -- 29.67 in1004.7 mb 0.01 in0.3 mm 0.00 in0.0 mm 0.01 in0.3 mm
06:28 AM 59.3°F15.2°C 57.9°F14.4°C 95% Calm Calm -- 29.67 in1004.7 mb 0.01 in0.3 mm 0.00 in0.0 mm 0.01 in0.3 mm
06:30 AM 59.3°F15.2°C 57.9°F14.4°C 95% Calm Calm -- 29.67 in1004.7 mb 0.01 in0.3 mm 0.00 in0.0 mm 0.01 in0.3 mm
06:32 AM 59.2°F15.1°C 57.8°F14.3°C 95% Calm Calm -- 29.66 in1004.4 mb 0.00 in0.0 mm 0.00 in0.0 mm 0.01 in0.3 mm
06:34 AM 59.2°F15.1°C 57.8°F14.3°C 95% Calm Calm -- 29.66 in1004.4 mb 0.00 in0.0 mm 0.00 in0.0 mm 0.01 in0.3 mm
06:36 AM 59.1°F15.1°C 57.7°F14.3°C 95% Calm Calm -- 29.66 in1004.4 mb 0.00 in0.0 mm 0.00 in0.0 mm 0.01 in0.3 mm
06:38 AM 59.1°F15.1°C 57.7°F14.3°C 95% Calm Calm -- 29.66 in1004.4 mb 0.00 in0.0 mm 0.00 in0.0 mm 0.01 in0.3 mm
06:40 AM 59.0°F15.0°C 57.6°F14.2°C 95% Calm Calm -- 29.66 in1004.4 mb 0.00 in0.0 mm 0.00 in0.0 mm 0.01 in0.3 mm
06:42 AM 59.0°F15.0°C 57.6°F14.2°C 95% Calm Calm -- 29.66 in1004.4 mb 0.00 in0.0 mm 0.00 in0.0 mm 0.01 in0.3 mm
06:44 AM 59.0°F15.0°C 57.6°F14.2°C 95% Calm Calm -- 29.66 in1004.4 mb 0.00 in0.0 mm 0.00 in0.0 mm 0.01 in0.3 mm
06:46 AM 58.9°F14.9°C 57.5°F14.2°C 95% Calm Calm -- 29.66 in1004.4 mb 0.00 in0.0 mm 0.00 in0.0 mm 0.01 in0.3 mm
06:48 AM 58.9°F14.9°C 57.5°F14.2°C 95% Calm Calm -- 29.66 in1004.4 mb 0.00 in0.0 mm 0.00 in0.0 mm 0.01 in0.3 mm
06:50 AM 58.9°F14.9°C 57.5°F14.2°C 95% Calm Calm -- 29.66 in1004.4 mb 0.00 in0.0 mm 0.00 in0.0 mm 0.01 in0.3 mm
06:52 AM 58.9°F14.9°C 57.5°F14.2°C 95% Calm Calm -- 29.66 in1004.4 mb 0.00 in0.0 mm 0.00 in0.0 mm 0.01 in0.3 mm
06:54 AM 58.8°F14.9°C 57.4°F14.1°C 95% Calm Calm -- 29.66 in1004.4 mb 0.00 in0.0 mm 0.00 in0.0 mm 0.01 in0.3 mm
06:56 AM 58.8°F14.9°C 57.4°F14.1°C 95% Calm Calm -- 29.66 in1004.4 mb 0.00 in0.0 mm 0.00 in0.0 mm 0.01 in0.3 mm
06:58 AM 58.8°F14.9°C 57.4°F14.1°C 95% Calm Calm -- 29.65 in1004.1 mb 0.00 in0.0 mm 0.00 in0.0 mm 0.01 in0.3 mm
07:00 AM 58.8°F14.9°C 57.4°F14.1°C 95% Calm Calm -- 29.65 in1004.1 mb 0.00 in0.0 mm 0.00 in0.0 mm 0.01 in0.3 mm
07:02 AM 58.8°F14.9°C 57.4°F14.1°C 95% Calm Calm -- 29.65 in1004.1 mb 0.00 in0.0 mm 0.00 in0.0 mm 0.01 in0.3 mm
07:04 AM 58.8°F14.9°C 57.4°F14.1°C 95% Calm Calm -- 29.65 in1004.1 mb 0.00 in0.0 mm 0.00 in0.0 mm 0.01 in0.3 mm
07:06 AM 58.8°F14.9°C 57.4°F14.1°C 95% Calm Calm -- 29.65 in1004.1 mb 0.00 in0.0 mm 0.00 in0.0 mm 0.01 in0.3 mm
07:08 AM 58.7°F14.8°C 57.3°F14.1°C 95% Calm Calm -- 29.65 in1004.1 mb 0.00 in0.0 mm 0.00 in0.0 mm 0.01 in0.3 mm
07:10 AM 58.8°F14.9°C 57.4°F14.1°C 95% Calm Calm -- 29.65 in1004.1 mb 0.00 in0.0 mm 0.00 in0.0 mm 0.01 in0.3 mm
07:12 AM 58.8°F14.9°C 57.4°F14.1°C 95% Calm Calm -- 29.65 in1004.1 mb 0.00 in0.0 mm 0.00 in0.0 mm 0.01 in0.3 mm
07:14 AM 58.8°F14.9°C 57.4°F14.1°C 95% Calm Calm -- 29.65 in1004.1 mb 0.00 in0.0 mm 0.00 in0.0 mm 0.01 in0.3 mm
07:16 AM 58.8°F14.9°C 57.4°F14.1°C 95% Calm Calm -- 29.65 in1004.1 mb 0.00 in0.0 mm 0.00 in0.0 mm 0.01 in0.3 mm
07:18 AM 58.8°F14.9°C 57.4°F14.1°C 95% Calm Calm -- 29.65 in1004.1 mb 0.00 in0.0 mm 0.00 in0.0 mm 0.01 in0.3 mm
07:20 AM 58.8°F14.9°C 57.4°F14.1°C 95% Calm Calm -- 29.65 in1004.1 mb 0.00 in0.0 mm 0.00 in0.0 mm 0.01 in0.3 mm
07:22 AM 58.8°F14.9°C 57.4°F14.1°C 95% Calm Calm -- 29.65 in1004.1 mb 0.00 in0.0 mm 0.00 in0.0 mm 0.01 in0.3 mm
07:24 AM 58.9°F14.9°C 57.5°F14.2°C 95% Calm Calm -- 29.65 in1004.1 mb 0.00 in0.0 mm 0.00 in0.0 mm 0.01 in0.3 mm
07:26 AM 58.9°F14.9°C 57.5°F14.2°C 95% Calm Calm -- 29.65 in1004.1 mb 0.00 in0.0 mm 0.00 in0.0 mm 0.01 in0.3 mm
07:28 AM 58.9°F14.9°C 57.5°F14.2°C 95% Calm Calm -- 29.65 in1004.1 mb 0.00 in0.0 mm 0.00 in0.0 mm 0.01 in0.3 mm
07:30 AM 58.9°F14.9°C 57.5°F14.2°C 95% Calm Calm -- 29.64 in1003.7 mb 0.00 in0.0 mm 0.00 in0.0 mm 0.01 in0.3 mm
07:32 AM 58.9°F14.9°C 57.5°F14.2°C 95% Calm Calm -- 29.65 in1004.1 mb 0.00 in0.0 mm 0.00 in0.0 mm 0.01 in0.3 mm
07:34 AM 58.9°F14.9°C 57.5°F14.2°C 95% Calm Calm -- 29.64 in1003.7 mb 0.00 in0.0 mm 0.00 in0.0 mm 0.01 in0.3 mm
07:36 AM 59.0°F15.0°C 57.6°F14.2°C 95% Calm Calm -- 29.64 in1003.7 mb 0.00 in0.0 mm 0.00 in0.0 mm 0.01 in0.3 mm
07:38 AM 59.0°F15.0°C 57.6°F14.2°C 95% Calm Calm -- 29.64 in1003.7 mb 0.00 in0.0 mm 0.00 in0.0 mm 0.01 in0.3 mm
07:40 AM 59.0°F15.0°C 57.6°F14.2°C 95% Calm Calm -- 29.65 in1004.1 mb 0.00 in0.0 mm 0.00 in0.0 mm 0.01 in0.3 mm
07:42 AM 59.0°F15.0°C 57.6°F14.2°C 95% Calm Calm -- 29.65 in1004.1 mb 0.00 in0.0 mm 0.00 in0.0 mm 0.01 in0.3 mm
07:44 AM 59.0°F15.0°C 57.6°F14.2°C 95% Calm Calm -- 29.64 in1003.7 mb 0.00 in0.0 mm 0.00 in0.0 mm 0.01 in0.3 mm
07:46 AM 59.1°F15.1°C 57.7°F14.3°C 95% Calm Calm -- 29.64 in1003.7 mb 0.00 in0.0 mm 0.00 in0.0 mm 0.01 in0.3 mm
07:48 AM 59.1°F15.1°C 57.7°F14.3°C 95% Calm Calm -- 29.64 in1003.7 mb 0.00 in0.0 mm 0.00 in0.0 mm 0.01 in0.3 mm
07:50 AM 59.1°F15.1°C 57.7°F14.3°C 95% Calm Calm -- 29.64 in1003.7 mb 0.00 in0.0 mm 0.00 in0.0 mm 0.01 in0.3 mm
07:52 AM 59.1°F15.1°C 57.7°F14.3°C 95% Calm Calm -- 29.64 in1003.7 mb 0.00 in0.0 mm 0.00 in0.0 mm 0.01 in0.3 mm
07:54 AM 59.1°F15.1°C 57.7°F14.3°C 95% Calm Calm -- 29.64 in1003.7 mb 0.00 in0.0 mm 0.00 in0.0 mm 0.01 in0.3 mm
07:56 AM 59.1°F15.1°C 57.7°F14.3°C 95% Calm Calm -- 29.64 in1003.7 mb 0.00 in0.0 mm 0.00 in0.0 mm 0.01 in0.3 mm
07:58 AM 59.1°F15.1°C 57.7°F14.3°C 95% Calm Calm -- 29.64 in1003.7 mb 0.00 in0.0 mm 0.00 in0.0 mm 0.01 in0.3 mm
08:00 AM 59.2°F15.1°C 57.8°F14.3°C 95% Calm Calm -- 29.64 in1003.7 mb 0.00 in0.0 mm 0.00 in0.0 mm 0.01 in0.3 mm
08:02 AM 59.2°F15.1°C 57.8°F14.3°C 95% Calm Calm -- 29.64 in1003.7 mb 0.00 in0.0 mm 0.00 in0.0 mm 0.01 in0.3 mm
08:04 AM 59.2°F15.1°C 57.8°F14.3°C 95% Calm Calm -- 29.63 in1003.4 mb 0.00 in0.0 mm 0.00 in0.0 mm 0.01 in0.3 mm
08:06 AM 59.2°F15.1°C 57.8°F14.3°C 95% Calm Calm -- 29.64 in1003.7 mb 0.00 in0.0 mm 0.00 in0.0 mm 0.01 in0.3 mm
08:08 AM 59.2°F15.1°C 57.8°F14.3°C 95% Calm Calm -- 29.64 in1003.7 mb 0.00 in0.0 mm 0.00 in0.0 mm 0.01 in0.3 mm
08:10 AM 59.3°F15.2°C 57.9°F14.4°C 95% Calm Calm -- 29.64 in1003.7 mb 0.00 in0.0 mm 0.00 in0.0 mm 0.01 in0.3 mm
08:12 AM 59.3°F15.2°C 57.9°F14.4°C 95% Calm Calm -- 29.64 in1003.7 mb 0.00 in0.0 mm 0.00 in0.0 mm 0.01 in0.3 mm
08:14 AM 59.3°F15.2°C 57.9°F14.4°C 95% Calm Calm -- 29.64 in1003.7 mb 0.00 in0.0 mm 0.00 in0.0 mm 0.01 in0.3 mm
08:16 AM 59.3°F15.2°C 57.9°F14.4°C 95% Calm Calm -- 29.64 in1003.7 mb 0.00 in0.0 mm 0.00 in0.0 mm 0.01 in0.3 mm
08:18 AM 59.3°F15.2°C 57.9°F14.4°C 95% Calm Calm -- 29.64 in1003.7 mb 0.00 in0.0 mm 0.00 in0.0 mm 0.01 in0.3 mm
08:20 AM 59.3°F15.2°C 57.9°F14.4°C 95% Calm Calm -- 29.63 in1003.4 mb 0.00 in0.0 mm 0.00 in0.0 mm 0.01 in0.3 mm
08:22 AM 59.3°F15.2°C 57.9°F14.4°C 95% Calm Calm -- 29.63 in1003.4 mb 0.00 in0.0 mm 0.00 in0.0 mm 0.01 in0.3 mm
08:24 AM 59.3°F15.2°C 57.9°F14.4°C 95% Calm Calm -- 29.63 in1003.4 mb 0.00 in0.0 mm 0.00 in0.0 mm 0.01 in0.3 mm
08:26 AM 59.3°F15.2°C 57.9°F14.4°C 95% Calm Calm -- 29.63 in1003.4 mb 0.00 in0.0 mm 0.00 in0.0 mm 0.01 in0.3 mm
08:28 AM 59.4°F15.2°C 58.0°F14.4°C 95% Calm Calm -- 29.63 in1003.4 mb 0.00 in0.0 mm 0.00 in0.0 mm 0.01 in0.3 mm
08:30 AM 59.4°F15.2°C 58.0°F14.4°C 95% Calm Calm -- 29.63 in1003.4 mb 0.00 in0.0 mm 0.00 in0.0 mm 0.01 in0.3 mm
08:32 AM 59.4°F15.2°C 58.0°F14.4°C 95% Calm Calm -- 29.62 in1003.0 mb 0.00 in0.0 mm 0.00 in0.0 mm 0.01 in0.3 mm
08:34 AM 59.4°F15.2°C 58.0°F14.4°C 95% Calm Calm -- 29.63 in1003.4 mb 0.00 in0.0 mm 0.00 in0.0 mm 0.01 in0.3 mm
08:36 AM 59.4°F15.2°C 58.0°F14.4°C 95% Calm Calm -- 29.63 in1003.4 mb 0.00 in0.0 mm 0.00 in0.0 mm 0.01 in0.3 mm
08:38 AM 59.5°F15.3°C 58.1°F14.5°C 95% Calm Calm -- 29.63 in1003.4 mb 0.00 in0.0 mm 0.00 in0.0 mm 0.01 in0.3 mm
08:40 AM 59.5°F15.3°C 58.1°F14.5°C 95% Calm Calm -- 29.63 in1003.4 mb 0.00 in0.0 mm 0.00 in0.0 mm 0.01 in0.3 mm
08:42 AM 59.5°F15.3°C 58.1°F14.5°C 95% Calm Calm -- 29.63 in1003.4 mb 0.00 in0.0 mm 0.00 in0.0 mm 0.01 in0.3 mm
08:44 AM 59.5°F15.3°C 58.1°F14.5°C 95% Calm Calm -- 29.63 in1003.4 mb 0.00 in0.0 mm 0.00 in0.0 mm 0.01 in0.3 mm
08:46 AM 59.5°F15.3°C 58.1°F14.5°C 95% Calm Calm -- 29.62 in1003.0 mb 0.00 in0.0 mm 0.00 in0.0 mm 0.01 in0.3 mm
08:48 AM 59.5°F15.3°C 58.1°F14.5°C 95% Calm Calm -- 29.62 in1003.0 mb 0.00 in0.0 mm 0.00 in0.0 mm 0.01 in0.3 mm
08:50 AM 59.5°F15.3°C 58.1°F14.5°C 95% Calm Calm -- 29.62 in1003.0 mb 0.00 in0.0 mm 0.00 in0.0 mm 0.01 in0.3 mm
08:52 AM 59.5°F15.3°C 58.1°F14.5°C 95% Calm Calm -- 29.62 in1003.0 mb 0.00 in0.0 mm 0.00 in0.0 mm 0.01 in0.3 mm
08:54 AM 59.5°F15.3°C 58.1°F14.5°C 95% Calm Calm -- 29.62 in1003.0 mb 0.00 in0.0 mm 0.00 in0.0 mm 0.01 in0.3 mm
08:56 AM 59.5°F15.3°C 58.1°F14.5°C 95% Calm Calm -- 29.62 in1003.0 mb 0.00 in0.0 mm 0.00 in0.0 mm 0.01 in0.3 mm
08:58 AM 59.5°F15.3°C 58.1°F14.5°C 95% Calm Calm -- 29.62 in1003.0 mb 0.00 in0.0 mm 0.00 in0.0 mm 0.01 in0.3 mm
09:00 AM 59.5°F15.3°C 58.1°F14.5°C 95% Calm Calm -- 29.61 in1002.7 mb 0.00 in0.0 mm 0.00 in0.0 mm 0.01 in0.3 mm
09:02 AM 59.5°F15.3°C 58.1°F14.5°C 95% Calm Calm -- 29.61 in1002.7 mb 0.00 in0.0 mm 0.00 in0.0 mm 0.01 in0.3 mm
09:04 AM 59.5°F15.3°C 58.1°F14.5°C 95% Calm Calm -- 29.61 in1002.7 mb 0.00 in0.0 mm 0.00 in0.0 mm 0.01 in0.3 mm
09:06 AM 59.5°F15.3°C 58.1°F14.5°C 95% Calm Calm -- 29.61 in1002.7 mb 0.00 in0.0 mm 0.00 in0.0 mm 0.01 in0.3 mm
09:08 AM 59.5°F15.3°C 58.1°F14.5°C 95% Calm Calm -- 29.60 in1002.4 mb 0.00 in0.0 mm 0.00 in0.0 mm 0.01 in0.3 mm
09:10 AM 59.6°F15.3°C 58.2°F14.6°C 95% Calm Calm -- 29.60 in1002.4 mb 0.00 in0.0 mm 0.00 in0.0 mm 0.01 in0.3 mm
09:12 AM 59.6°F15.3°C 58.2°F14.6°C 95% Calm Calm -- 29.60 in1002.4 mb 0.00 in0.0 mm 0.00 in0.0 mm 0.01 in0.3 mm
09:14 AM 59.6°F15.3°C 58.2°F14.6°C 95% Calm Calm -- 29.60 in1002.4 mb 0.00 in0.0 mm 0.00 in0.0 mm 0.01 in0.3 mm
09:16 AM 59.6°F15.3°C 58.2°F14.6°C 95% Calm Calm -- 29.60 in1002.4 mb 0.00 in0.0 mm 0.00 in0.0 mm 0.01 in0.3 mm
09:18 AM 59.7°F15.4°C 58.3°F14.6°C 95% Calm Calm -- 29.60 in1002.4 mb 0.00 in0.0 mm 0.00 in0.0 mm 0.01 in0.3 mm
09:20 AM 59.7°F15.4°C 58.3°F14.6°C 95% Calm Calm -- 29.60 in1002.4 mb 0.00 in0.0 mm 0.00 in0.0 mm 0.01 in0.3 mm
09:22 AM 59.7°F15.4°C 58.3°F14.6°C 95% Calm Calm -- 29.60 in1002.4 mb 0.00 in0.0 mm 0.00 in0.0 mm 0.01 in0.3 mm
09:24 AM 59.7°F15.4°C 58.3°F14.6°C 95% Calm Calm -- 29.61 in1002.7 mb 0.00 in0.0 mm 0.00 in0.0 mm 0.01 in0.3 mm
09:26 AM 59.6°F15.3°C 58.2°F14.6°C 95% Calm Calm -- 29.60 in1002.4 mb 0.00 in0.0 mm 0.00 in0.0 mm 0.01 in0.3 mm
09:28 AM 59.6°F15.3°C 58.2°F14.6°C 95% Calm Calm -- 29.60 in1002.4 mb 0.00 in0.0 mm 0.00 in0.0 mm 0.01 in0.3 mm
09:30 AM 59.6°F15.3°C 58.2°F14.6°C 95% Calm Calm -- 29.60 in1002.4 mb 0.00 in0.0 mm 0.00 in0.0 mm 0.01 in0.3 mm
09:32 AM 59.5°F15.3°C 58.1°F14.5°C 95% Calm Calm -- 29.61 in1002.7 mb 0.00 in0.0 mm 0.00 in0.0 mm 0.01 in0.3 mm
09:34 AM 59.6°F15.3°C 58.2°F14.6°C 95% Calm Calm -- 29.61 in1002.7 mb 0.00 in0.0 mm 0.00 in0.0 mm 0.01 in0.3 mm
09:36 AM 59.5°F15.3°C 58.1°F14.5°C 95% Calm Calm -- 29.61 in1002.7 mb 0.00 in0.0 mm 0.00 in0.0 mm 0.01 in0.3 mm
09:38 AM 59.5°F15.3°C 58.1°F14.5°C 95% Calm Calm -- 29.61 in1002.7 mb 0.00 in0.0 mm 0.00 in0.0 mm 0.01 in0.3 mm
09:40 AM 59.5°F15.3°C 58.1°F14.5°C 95% Calm Calm -- 29.61 in1002.7 mb 0.00 in0.0 mm 0.00 in0.0 mm 0.01 in0.3 mm
09:42 AM 59.5°F15.3°C 58.1°F14.5°C 95% Calm Calm -- 29.61 in1002.7 mb 0.00 in0.0 mm 0.00 in0.0 mm 0.01 in0.3 mm
09:44 AM 59.5°F15.3°C 58.1°F14.5°C 95% Calm Calm -- 29.61 in1002.7 mb 0.00 in0.0 mm 0.00 in0.0 mm 0.01 in0.3 mm
09:46 AM 59.4°F15.2°C 58.0°F14.4°C 95% Calm Calm -- 29.61 in1002.7 mb 0.00 in0.0 mm 0.00 in0.0 mm 0.01 in0.3 mm
09:48 AM 59.4°F15.2°C 58.0°F14.4°C 95% Calm Calm -- 29.61 in1002.7 mb 0.00 in0.0 mm 0.00 in0.0 mm 0.01 in0.3 mm
09:50 AM 59.4°F15.2°C 58.0°F14.4°C 95% Calm Calm -- 29.61 in1002.7 mb 0.00 in0.0 mm 0.00 in0.0 mm 0.01 in0.3 mm
09:52 AM 59.3°F15.2°C 57.9°F14.4°C 95% Calm Calm -- 29.61 in1002.7 mb 0.00 in0.0 mm 0.00 in0.0 mm 0.01 in0.3 mm
09:54 AM 59.3°F15.2°C 57.9°F14.4°C 95% Calm Calm -- 29.60 in1002.4 mb 0.00 in0.0 mm 0.00 in0.0 mm 0.01 in0.3 mm
09:56 AM 59.3°F15.2°C 57.9°F14.4°C 95% Calm Calm -- 29.60 in1002.4 mb 0.00 in0.0 mm 0.00 in0.0 mm 0.01 in0.3 mm
09:58 AM 59.3°F15.2°C 57.9°F14.4°C 95% Calm Calm -- 29.60 in1002.4 mb 0.00 in0.0 mm 0.00 in0.0 mm 0.01 in0.3 mm
10:00 AM 59.2°F15.1°C 57.8°F14.3°C 95% Calm Calm -- 29.60 in1002.4 mb 0.00 in0.0 mm 0.00 in0.0 mm 0.01 in0.3 mm
10:02 AM 59.2°F15.1°C 57.8°F14.3°C 95% Calm Calm -- 29.60 in1002.4 mb 0.00 in0.0 mm 0.00 in0.0 mm 0.01 in0.3 mm
10:04 AM 59.2°F15.1°C 57.8°F14.3°C 95% Calm Calm -- 29.60 in1002.4 mb 0.00 in0.0 mm 0.00 in0.0 mm 0.01 in0.3 mm
10:06 AM 59.2°F15.1°C 57.8°F14.3°C 95% Calm Calm -- 29.60 in1002.4 mb 0.00 in0.0 mm 0.00 in0.0 mm 0.01 in0.3 mm
10:08 AM 59.2°F15.1°C 57.8°F14.3°C 95% Calm Calm -- 29.60 in1002.4 mb 0.00 in0.0 mm 0.00 in0.0 mm 0.01 in0.3 mm
10:10 AM 59.2°F15.1°C 57.8°F14.3°C 95% Calm Calm -- 29.60 in1002.4 mb 0.00 in0.0 mm 0.00 in0.0 mm 0.01 in0.3 mm
10:12 AM 59.2°F15.1°C 57.8°F14.3°C 95% Calm Calm -- 29.59 in1002.0 mb 0.00 in0.0 mm 0.00 in0.0 mm 0.01 in0.3 mm
10:14 AM 59.2°F15.1°C 57.8°F14.3°C 95% Calm Calm -- 29.59 in1002.0 mb 0.00 in0.0 mm 0.00 in0.0 mm 0.01 in0.3 mm
10:16 AM 59.3°F15.2°C 57.9°F14.4°C 95% Calm Calm -- 29.59 in1002.0 mb 0.00 in0.0 mm 0.00 in0.0 mm 0.01 in0.3 mm
10:18 AM 59.3°F15.2°C 58.2°F14.6°C 96% Calm Calm -- 29.59 in1002.0 mb 0.00 in0.0 mm 0.00 in0.0 mm 0.01 in0.3 mm
10:20 AM 59.4°F15.2°C 58.0°F14.4°C 95% Calm Calm -- 29.59 in1002.0 mb 0.00 in0.0 mm 0.00 in0.0 mm 0.01 in0.3 mm
10:22 AM 59.4°F15.2°C 58.0°F14.4°C 95% Calm Calm -- 29.58 in1001.7 mb 0.00 in0.0 mm 0.00 in0.0 mm 0.01 in0.3 mm
10:24 AM 59.5°F15.3°C 58.1°F14.5°C 95% Calm Calm -- 29.58 in1001.7 mb 0.00 in0.0 mm 0.00 in0.0 mm 0.01 in0.3 mm
10:26 AM 59.4°F15.2°C 58.0°F14.4°C 95% Calm Calm -- 29.58 in1001.7 mb 0.00 in0.0 mm 0.00 in0.0 mm 0.01 in0.3 mm
10:28 AM 59.5°F15.3°C 58.1°F14.5°C 95% Calm Calm -- 29.58 in1001.7 mb 0.00 in0.0 mm 0.00 in0.0 mm 0.01 in0.3 mm
10:30 AM 59.5°F15.3°C 58.1°F14.5°C 95% Calm Calm -- 29.57 in1001.4 mb 0.00 in0.0 mm 0.00 in0.0 mm 0.01 in0.3 mm
10:32 AM 59.5°F15.3°C 58.1°F14.5°C 95% Calm Calm -- 29.57 in1001.4 mb 0.00 in0.0 mm 0.00 in0.0 mm 0.01 in0.3 mm
10:34 AM 59.5°F15.3°C 58.1°F14.5°C 95% Calm Calm -- 29.57 in1001.4 mb 0.00 in0.0 mm 0.00 in0.0 mm 0.01 in0.3 mm
10:36 AM 59.5°F15.3°C 58.1°F14.5°C 95% Calm Calm -- 29.57 in1001.4 mb 0.00 in0.0 mm 0.00 in0.0 mm 0.01 in0.3 mm
10:38 AM 59.5°F15.3°C 58.1°F14.5°C 95% Calm Calm -- 29.58 in1001.7 mb 0.00 in0.0 mm 0.00 in0.0 mm 0.01 in0.3 mm
10:40 AM 59.5°F15.3°C 58.1°F14.5°C 95% Calm Calm -- 29.57 in1001.4 mb 0.00 in0.0 mm 0.00 in0.0 mm 0.01 in0.3 mm
10:42 AM 59.6°F15.3°C 58.2°F14.6°C 95% Calm Calm -- 29.57 in1001.4 mb 0.00 in0.0 mm 0.00 in0.0 mm 0.01 in0.3 mm
10:44 AM 59.6°F15.3°C 58.2°F14.6°C 95% Calm Calm -- 29.57 in1001.4 mb 0.00 in0.0 mm 0.00 in0.0 mm 0.01 in0.3 mm
10:46 AM 59.6°F15.3°C 58.2°F14.6°C 95% Calm Calm -- 29.58 in1001.7 mb 0.00 in0.0 mm 0.00 in0.0 mm 0.01 in0.3 mm
10:48 AM 59.6°F15.3°C 58.2°F14.6°C 95% Calm Calm -- 29.58 in1001.7 mb 0.00 in0.0 mm 0.00 in0.0 mm 0.01 in0.3 mm
10:50 AM 59.6°F15.3°C 58.2°F14.6°C 95% Calm Calm -- 29.58 in1001.7 mb 0.00 in0.0 mm 0.00 in0.0 mm 0.01 in0.3 mm
10:52 AM 59.6°F15.3°C 58.2°F14.6°C 95% Calm Calm -- 29.57 in1001.4 mb 0.00 in0.0 mm 0.00 in0.0 mm 0.01 in0.3 mm
10:54 AM 59.6°F15.3°C 58.2°F14.6°C 95% Calm Calm -- 29.56 in1001.0 mb 0.00 in0.0 mm 0.00 in0.0 mm 0.01 in0.3 mm
10:56 AM 59.6°F15.3°C 58.2°F14.6°C 95% Calm Calm -- 29.56 in1001.0 mb 0.00 in0.0 mm 0.00 in0.0 mm 0.01 in0.3 mm
10:58 AM 59.6°F15.3°C 58.2°F14.6°C 95% Calm Calm -- 29.56 in1001.0 mb 0.00 in0.0 mm 0.00 in0.0 mm 0.01 in0.3 mm
11:00 AM 59.6°F15.3°C 58.2°F14.6°C 95% Calm Calm -- 29.56 in1001.0 mb 0.00 in0.0 mm 0.00 in0.0 mm 0.01 in0.3 mm
11:02 AM 59.6°F15.3°C 58.2°F14.6°C 95% Calm Calm -- 29.56 in1001.0 mb 0.00 in0.0 mm 0.00 in0.0 mm 0.01 in0.3 mm
11:04 AM 59.7°F15.4°C 58.3°F14.6°C 95% Calm Calm -- 29.57 in1001.4 mb 0.00 in0.0 mm 0.00 in0.0 mm 0.01 in0.3 mm
11:06 AM 59.8°F15.4°C 58.4°F14.7°C 95% Calm Calm -- 29.57 in1001.4 mb 0.00 in0.0 mm 0.00 in0.0 mm 0.01 in0.3 mm
11:08 AM 59.8°F15.4°C 58.4°F14.7°C 95% Calm Calm -- 29.57 in1001.4 mb 0.00 in0.0 mm 0.00 in0.0 mm 0.01 in0.3 mm
11:10 AM 59.8°F15.4°C 58.4°F14.7°C 95% Calm Calm -- 29.58 in1001.7 mb 0.00 in0.0 mm 0.00 in0.0 mm 0.01 in0.3 mm
11:12 AM 59.8°F15.4°C 58.4°F14.7°C 95% Calm Calm -- 29.58 in1001.7 mb 0.00 in0.0 mm 0.00 in0.0 mm 0.01 in0.3 mm
11:14 AM 59.8°F15.4°C 58.4°F14.7°C 95% Calm Calm -- 29.57 in1001.4 mb 0.00 in0.0 mm 0.00 in0.0 mm 0.01 in0.3 mm
11:16 AM 59.8°F15.4°C 58.4°F14.7°C 95% Calm Calm -- 29.57 in1001.4 mb 0.00 in0.0 mm 0.00 in0.0 mm 0.01 in0.3 mm
11:18 AM 59.8°F15.4°C 58.4°F14.7°C 95% Calm Calm -- 29.57 in1001.4 mb 0.00 in0.0 mm 0.00 in0.0 mm 0.01 in0.3 mm
11:20 AM 59.9°F15.5°C 58.5°F14.7°C 95% Calm Calm -- 29.57 in1001.4 mb 0.00 in0.0 mm 0.00 in0.0 mm 0.01 in0.3 mm
11:22 AM 59.9°F15.5°C 58.5°F14.7°C 95% Calm Calm -- 29.57 in1001.4 mb 0.00 in0.0 mm 0.00 in0.0 mm 0.01 in0.3 mm
11:24 AM 59.9°F15.5°C 58.5°F14.7°C 95% Calm Calm -- 29.56 in1001.0 mb 0.00 in0.0 mm 0.00 in0.0 mm 0.01 in0.3 mm
11:26 AM 59.9°F15.5°C 58.5°F14.7°C 95% Calm Calm -- 29.56 in1001.0 mb 0.00 in0.0 mm 0.00 in0.0 mm 0.01 in0.3 mm
11:28 AM 60.0°F15.6°C 58.6°F14.8°C 95% Calm Calm -- 29.57 in1001.4 mb 0.00 in0.0 mm 0.00 in0.0 mm 0.01 in0.3 mm
11:30 AM 60.0°F15.6°C 58.6°F14.8°C 95% Calm Calm -- 29.57 in1001.4 mb 0.00 in0.0 mm 0.00 in0.0 mm 0.01 in0.3 mm
11:32 AM 60.1°F15.6°C 58.7°F14.8°C 95% Calm Calm -- 29.57 in1001.4 mb 0.00 in0.0 mm 0.00 in0.0 mm 0.01 in0.3 mm
11:34 AM 60.1°F15.6°C 58.7°F14.8°C 95% Calm Calm -- 29.57 in1001.4 mb 0.00 in0.0 mm 0.00 in0.0 mm 0.01 in0.3 mm
11:36 AM 60.1°F15.6°C 58.7°F14.8°C 95% Calm Calm -- 29.57 in1001.4 mb 0.00 in0.0 mm 0.00 in0.0 mm 0.01 in0.3 mm
11:38 AM 60.1°F15.6°C 58.7°F14.8°C 95% Calm Calm -- 29.57 in1001.4 mb 0.00 in0.0 mm 0.00 in0.0 mm 0.01 in0.3 mm
11:40 AM 60.1°F15.6°C 58.7°F14.8°C 95% Calm Calm -- 29.57 in1001.4 mb 0.00 in0.0 mm 0.00 in0.0 mm 0.01 in0.3 mm
11:42 AM 60.1°F15.6°C 58.7°F14.8°C 95% Calm Calm -- 29.57 in1001.4 mb 0.00 in0.0 mm 0.00 in0.0 mm 0.01 in0.3 mm
11:44 AM 60.0°F15.6°C 58.3°F14.6°C 94% Calm Calm -- 29.57 in1001.4 mb 0.00 in0.0 mm 0.00 in0.0 mm 0.01 in0.3 mm
11:46 AM 60.0°F15.6°C 58.3°F14.6°C 94% Calm Calm -- 29.57 in1001.4 mb 0.00 in0.0 mm 0.00 in0.0 mm 0.01 in0.3 mm
11:48 AM 60.0°F15.6°C 58.3°F14.6°C 94% Calm Calm -- 29.56 in1001.0 mb 0.00 in0.0 mm 0.00 in0.0 mm 0.01 in0.3 mm
11:50 AM 60.0°F15.6°C 58.3°F14.6°C 94% Calm Calm -- 29.56 in1001.0 mb 0.00 in0.0 mm 0.00 in0.0 mm 0.01 in0.3 mm
11:52 AM 60.0°F15.6°C 58.3°F14.6°C 94% Calm Calm -- 29.56 in1001.0 mb 0.00 in0.0 mm 0.00 in0.0 mm 0.01 in0.3 mm
11:54 AM 60.0°F15.6°C 58.3°F14.6°C 94% Calm Calm -- 29.56 in1001.0 mb 0.00 in0.0 mm 0.00 in0.0 mm 0.01 in0.3 mm
11:56 AM 59.9°F15.5°C 58.2°F14.6°C 94% Calm Calm -- 29.55 in1000.7 mb 0.00 in0.0 mm 0.00 in0.0 mm 0.01 in0.3 mm
11:58 AM 59.9°F15.5°C 58.2°F14.6°C 94% Calm Calm -- 29.55 in1000.7 mb 0.00 in0.0 mm 0.00 in0.0 mm 0.01 in0.3 mm
12:00 PM 59.9°F15.5°C 58.2°F14.6°C 94% Calm Calm -- 29.56 in1001.0 mb 0.00 in0.0 mm 0.00 in0.0 mm 0.01 in0.3 mm
12:02 PM 59.9°F15.5°C 58.2°F14.6°C 94% Calm Calm -- 29.56 in1001.0 mb 0.00 in0.0 mm 0.00 in0.0 mm 0.01 in0.3 mm
12:04 PM 60.0°F15.6°C 58.3°F14.6°C 94% Calm Calm -- 29.56 in1001.0 mb 0.00 in0.0 mm 0.00 in0.0 mm 0.01 in0.3 mm
12:06 PM 60.0°F15.6°C 58.3°F14.6°C 94% Calm Calm -- 29.56 in1001.0 mb 0.00 in0.0 mm 0.00 in0.0 mm 0.01 in0.3 mm
12:08 PM 60.0°F15.6°C 58.3°F14.6°C 94% Calm Calm -- 29.56 in1001.0 mb 0.00 in0.0 mm 0.00 in0.0 mm 0.01 in0.3 mm
12:10 PM 59.9°F15.5°C 58.2°F14.6°C 94% Calm Calm -- 29.57 in1001.4 mb 0.00 in0.0 mm 0.00 in0.0 mm 0.01 in0.3 mm
12:12 PM 59.9°F15.5°C 58.2°F14.6°C 94% Calm Calm -- 29.57 in1001.4 mb 0.00 in0.0 mm 0.00 in0.0 mm 0.01 in0.3 mm
12:14 PM 59.9°F15.5°C 58.2°F14.6°C 94% Calm Calm -- 29.57 in1001.4 mb 0.00 in0.0 mm 0.00 in0.0 mm 0.01 in0.3 mm
12:16 PM 59.9°F15.5°C 58.2°F14.6°C 94% Calm Calm -- 29.57 in1001.4 mb 0.00 in0.0 mm 0.00 in0.0 mm 0.01 in0.3 mm
12:18 PM 59.9°F15.5°C 58.2°F14.6°C 94% Calm Calm -- 29.57 in1001.4 mb 0.00 in0.0 mm 0.00 in0.0 mm 0.01 in0.3 mm
12:20 PM 59.9°F15.5°C 58.2°F14.6°C 94% Calm Calm -- 29.56 in1001.0 mb 0.00 in0.0 mm 0.00 in0.0 mm 0.01 in0.3 mm
12:22 PM 59.8°F15.4°C 58.1°F14.5°C 94% Calm Calm -- 29.56 in1001.0 mb 0.00 in0.0 mm 0.00 in0.0 mm 0.01 in0.3 mm
12:24 PM 59.8°F15.4°C 58.1°F14.5°C 94% Calm Calm -- 29.56 in1001.0 mb 0.00 in0.0 mm 0.00 in0.0 mm 0.01 in0.3 mm
12:26 PM 59.8°F15.4°C 58.4°F14.7°C 95% Calm Calm -- 29.56 in1001.0 mb 0.00 in0.0 mm 0.00 in0.0 mm 0.01 in0.3 mm
12:28 PM 59.8°F15.4°C 58.4°F14.7°C 95% Calm Calm -- 29.56 in1001.0 mb 0.00 in0.0 mm 0.00 in0.0 mm 0.01 in0.3 mm
12:30 PM 59.8°F15.4°C 58.4°F14.7°C 95% Calm Calm -- 29.56 in1001.0 mb 0.00 in0.0 mm 0.00 in0.0 mm 0.01 in0.3 mm
12:32 PM 59.8°F15.4°C 58.4°F14.7°C 95% Calm Calm -- 29.57 in1001.4 mb 0.00 in0.0 mm 0.00 in0.0 mm 0.01 in0.3 mm
12:34 PM 59.8°F15.4°C 58.4°F14.7°C 95% Calm Calm -- 29.56 in1001.0 mb 0.00 in0.0 mm 0.00 in0.0 mm 0.01 in0.3 mm
12:36 PM 59.8°F15.4°C 58.4°F14.7°C 95% Calm Calm -- 29.56 in1001.0 mb 0.00 in0.0 mm 0.00 in0.0 mm 0.01 in0.3 mm
12:38 PM 59.8°F15.4°C 58.4°F14.7°C 95% Calm Calm -- 29.56 in1001.0 mb 0.00 in0.0 mm 0.00 in0.0 mm 0.01 in0.3 mm
12:40 PM 59.8°F15.4°C 58.4°F14.7°C 95% Calm Calm -- 29.55 in1000.7 mb 0.00 in0.0 mm 0.00 in0.0 mm 0.01 in0.3 mm
12:42 PM 59.8°F15.4°C 58.4°F14.7°C 95% Calm Calm -- 29.55 in1000.7 mb 0.00 in0.0 mm 0.00 in0.0 mm 0.01 in0.3 mm
12:44 PM 59.8°F15.4°C 58.4°F14.7°C 95% Calm Calm -- 29.54 in1000.3 mb 0.00 in0.0 mm 0.00 in0.0 mm 0.01 in0.3 mm
12:46 PM 59.7°F15.4°C 58.3°F14.6°C 95% Calm Calm -- 29.54 in1000.3 mb 0.00 in0.0 mm 0.00 in0.0 mm 0.01 in0.3 mm
12:48 PM 59.7°F15.4°C 58.3°F14.6°C 95% Calm Calm -- 29.54 in1000.3 mb 0.00 in0.0 mm 0.00 in0.0 mm 0.01 in0.3 mm
12:50 PM 59.6°F15.3°C 58.2°F14.6°C 95% Calm Calm -- 29.53 in1000.0 mb 0.00 in0.0 mm 0.00 in0.0 mm 0.01 in0.3 mm
12:52 PM 59.6°F15.3°C 58.2°F14.6°C 95% Calm Calm -- 29.53 in1000.0 mb 0.00 in0.0 mm 0.00 in0.0 mm 0.01 in0.3 mm
12:54 PM 59.6°F15.3°C 58.2°F14.6°C 95% Calm Calm -- 29.53 in1000.0 mb 0.00 in0.0 mm 0.00 in0.0 mm 0.01 in0.3 mm
12:56 PM 59.6°F15.3°C 58.2°F14.6°C 95% Calm Calm -- 29.53 in1000.0 mb 0.00 in0.0 mm 0.00 in0.0 mm 0.01 in0.3 mm
12:58 PM 59.7°F15.4°C 58.3°F14.6°C 95% Calm Calm -- 29.54 in1000.3 mb 0.00 in0.0 mm 0.00 in0.0 mm 0.01 in0.3 mm
01:00 PM 59.6°F15.3°C 58.2°F14.6°C 95% Calm Calm -- 29.54 in1000.3 mb 0.00 in0.0 mm 0.00 in0.0 mm 0.01 in0.3 mm
01:02 PM 59.7°F15.4°C 58.3°F14.6°C 95% Calm Calm -- 29.53 in1000.0 mb 0.00 in0.0 mm 0.00 in0.0 mm 0.01 in0.3 mm
01:04 PM 59.7°F15.4°C 58.3°F14.6°C 95% Calm Calm -- 29.53 in1000.0 mb 0.00 in0.0 mm 0.00 in0.0 mm 0.01 in0.3 mm
01:06 PM 59.7°F15.4°C 58.3°F14.6°C 95% Calm Calm -- 29.53 in1000.0 mb 0.00 in0.0 mm 0.00 in0.0 mm 0.01 in0.3 mm
01:08 PM 59.8°F15.4°C 58.4°F14.7°C 95% Calm Calm -- 29.53 in1000.0 mb 0.00 in0.0 mm 0.00 in0.0 mm 0.01 in0.3 mm
01:10 PM 59.8°F15.4°C 58.4°F14.7°C 95% Calm Calm -- 29.53 in1000.0 mb 0.00 in0.0 mm 0.00 in0.0 mm 0.01 in0.3 mm
01:12 PM 59.9°F15.5°C 58.5°F14.7°C 95% Calm Calm -- 29.53 in1000.0 mb 0.00 in0.0 mm 0.00 in0.0 mm 0.01 in0.3 mm
01:14 PM 60.0°F15.6°C 58.6°F14.8°C 95% Calm Calm -- 29.52 in999.7 mb 0.00 in0.0 mm 0.00 in0.0 mm 0.01 in0.3 mm
01:16 PM 60.0°F15.6°C 58.6°F14.8°C 95% Calm Calm -- 29.52 in999.7 mb 0.00 in0.0 mm 0.00 in0.0 mm 0.01 in0.3 mm
01:18 PM 60.1°F15.6°C 58.7°F14.8°C 95% Calm Calm -- 29.52 in999.7 mb 0.00 in0.0 mm 0.00 in0.0 mm 0.01 in0.3 mm
01:20 PM 60.2°F15.7°C 58.8°F14.9°C 95% Calm Calm -- 29.52 in999.7 mb 0.00 in0.0 mm 0.00 in0.0 mm 0.01 in0.3 mm
01:22 PM 60.2°F15.7°C 58.8°F14.9°C 95% Calm Calm -- 29.52 in999.7 mb 0.00 in0.0 mm 0.00 in0.0 mm 0.01 in0.3 mm
01:24 PM 60.2°F15.7°C 58.8°F14.9°C 95% Calm Calm -- 29.52 in999.7 mb 0.00 in0.0 mm 0.00 in0.0 mm 0.01 in0.3 mm
01:26 PM 60.3°F15.7°C 58.9°F14.9°C 95% Calm Calm -- 29.51 in999.3 mb 0.00 in0.0 mm 0.00 in0.0 mm 0.01 in0.3 mm
01:28 PM 60.3°F15.7°C 58.9°F14.9°C 95% Calm Calm -- 29.52 in999.7 mb 0.00 in0.0 mm 0.00 in0.0 mm 0.01 in0.3 mm
01:30 PM 60.4°F15.8°C 59.0°F15.0°C 95% Calm Calm -- 29.52 in999.7 mb 0.00 in0.0 mm 0.00 in0.0 mm 0.01 in0.3 mm
01:32 PM 60.4°F15.8°C 59.0°F15.0°C 95% Calm Calm -- 29.52 in999.7 mb 0.00 in0.0 mm 0.00 in0.0 mm 0.01 in0.3 mm
01:34 PM 60.4°F15.8°C 59.0°F15.0°C 95% Calm Calm -- 29.52 in999.7 mb 0.00 in0.0 mm 0.00 in0.0 mm 0.01 in0.3 mm
01:36 PM 60.5°F15.8°C 59.1°F15.1°C 95% Calm Calm -- 29.52 in999.7 mb 0.00 in0.0 mm 0.00 in0.0 mm 0.01 in0.3 mm
01:38 PM 60.6°F15.9°C 59.2°F15.1°C 95% Calm Calm -- 29.52 in999.7 mb 0.00 in0.0 mm 0.00 in0.0 mm 0.01 in0.3 mm
01:40 PM 60.7°F15.9°C 59.3°F15.2°C 95% Calm Calm -- 29.52 in999.7 mb 0.00 in0.0 mm 0.00 in0.0 mm 0.01 in0.3 mm
01:42 PM 60.8°F16.0°C 59.1°F15.1°C 94% Calm Calm -- 29.52 in999.7 mb 0.00 in0.0 mm 0.00 in0.0 mm 0.01 in0.3 mm
01:44 PM 60.9°F16.1°C 59.2°F15.1°C 94% Calm Calm -- 29.52 in999.7 mb 0.00 in0.0 mm 0.00 in0.0 mm 0.01 in0.3 mm
01:46 PM 60.9°F16.1°C 59.2°F15.1°C 94% Calm Calm -- 29.52 in999.7 mb 0.00 in0.0 mm 0.00 in0.0 mm 0.01 in0.3 mm
01:48 PM 61.0°F16.1°C 59.3°F15.2°C 94% Calm Calm -- 29.52 in999.7 mb 0.00 in0.0 mm 0.00 in0.0 mm 0.01 in0.3 mm
01:50 PM 61.0°F16.1°C 59.3°F15.2°C 94% Calm Calm -- 29.52 in999.7 mb 0.00 in0.0 mm 0.00 in0.0 mm 0.01 in0.3 mm
01:52 PM 61.1°F16.2°C 59.4°F15.2°C 94% Calm Calm -- 29.51 in999.3 mb 0.00 in0.0 mm 0.00 in0.0 mm 0.01 in0.3 mm
01:54 PM 61.1°F16.2°C 59.4°F15.2°C 94% Calm Calm -- 29.51 in999.3 mb 0.00 in0.0 mm 0.00 in0.0 mm 0.01 in0.3 mm
01:56 PM 61.1°F16.2°C 59.4°F15.2°C 94% Calm Calm -- 29.51 in999.3 mb 0.00 in0.0 mm 0.00 in0.0 mm 0.01 in0.3 mm
01:58 PM 61.1°F16.2°C 59.1°F15.1°C 93% Calm Calm -- 29.51 in999.3 mb 0.00 in0.0 mm 0.00 in0.0 mm 0.01 in0.3 mm
02:00 PM 61.1°F16.2°C 59.1°F15.1°C 93% Calm Calm -- 29.50 in999.0 mb 0.00 in0.0 mm 0.00 in0.0 mm 0.01 in0.3 mm
02:02 PM 61.1°F16.2°C 59.1°F15.1°C 93% Calm Calm -- 29.50 in999.0 mb 0.00 in0.0 mm 0.00 in0.0 mm 0.01 in0.3 mm
02:04 PM 61.1°F16.2°C 59.1°F15.1°C 93% Calm Calm -- 29.50 in999.0 mb 0.00 in0.0 mm 0.00 in0.0 mm 0.01 in0.3 mm
02:06 PM 61.1°F16.2°C 59.1°F15.1°C 93% Calm Calm -- 29.50 in999.0 mb 0.00 in0.0 mm 0.00 in0.0 mm 0.01 in0.3 mm
02:08 PM 61.2°F16.2°C 59.5°F15.3°C 94% Calm Calm -- 29.50 in999.0 mb 0.00 in0.0 mm 0.00 in0.0 mm 0.01 in0.3 mm
02:10 PM 61.3°F16.3°C 59.6°F15.3°C 94% Calm Calm -- 29.50 in999.0 mb 0.00 in0.0 mm 0.00 in0.0 mm 0.01 in0.3 mm
02:12 PM 61.4°F16.3°C 59.7°F15.4°C 94% Calm Calm -- 29.50 in999.0 mb 0.00 in0.0 mm 0.00 in0.0 mm 0.01 in0.3 mm
02:14 PM 61.5°F16.4°C 59.5°F15.3°C 93% Calm Calm -- 29.50 in999.0 mb 0.00 in0.0 mm 0.00 in0.0 mm 0.01 in0.3 mm
02:16 PM 61.5°F16.4°C 59.5°F15.3°C 93% Calm Calm -- 29.50 in999.0 mb 0.00 in0.0 mm 0.00 in0.0 mm 0.01 in0.3 mm
02:18 PM 61.6°F16.4°C 59.6°F15.3°C 93% Calm Calm -- 29.49 in998.6 mb 0.00 in0.0 mm 0.00 in0.0 mm 0.01 in0.3 mm
02:20 PM 61.8°F16.6°C 59.8°F15.4°C 93% Calm Calm -- 29.49 in998.6 mb 0.00 in0.0 mm 0.00 in0.0 mm 0.01 in0.3 mm
02:22 PM 61.9°F16.6°C 59.9°F15.5°C 93% Calm Calm -- 29.49 in998.6 mb 0.00 in0.0 mm 0.00 in0.0 mm 0.01 in0.3 mm
02:24 PM 62.1°F16.7°C 60.1°F15.6°C 93% Calm Calm -- 29.49 in998.6 mb 0.00 in0.0 mm 0.00 in0.0 mm 0.01 in0.3 mm
02:26 PM 62.2°F16.8°C 59.9°F15.5°C 92% Calm Calm -- 29.49 in998.6 mb 0.00 in0.0 mm 0.00 in0.0 mm 0.01 in0.3 mm
02:28 PM 62.4°F16.9°C 60.4°F15.8°C 93% Calm Calm -- 29.48 in998.3 mb 0.00 in0.0 mm 0.00 in0.0 mm 0.01 in0.3 mm
02:30 PM 62.6°F17.0°C 60.3°F15.7°C 92% Calm Calm -- 29.48 in998.3 mb 0.00 in0.0 mm 0.00 in0.0 mm 0.01 in0.3 mm
02:32 PM 62.9°F17.2°C 60.2°F15.7°C 91% Calm Calm -- 29.48 in998.3 mb 0.00 in0.0 mm 0.00 in0.0 mm 0.01 in0.3 mm
02:34 PM 63.1°F17.3°C 60.4°F15.8°C 91% Calm Calm -- 29.48 in998.3 mb 0.00 in0.0 mm 0.00 in0.0 mm 0.01 in0.3 mm
02:36 PM 63.3°F17.4°C 60.6°F15.9°C 91% 2.0 mph SSW3.2 kmh SSW 2.0 mph3.2 kmh 29.48 in998.3 mb 0.00 in0.0 mm 0.00 in0.0 mm 0.01 in0.3 mm
02:38 PM 63.6°F17.6°C 60.9°F16.1°C 91% 2.0 mph SSW3.2 kmh SSW 4.0 mph6.4 kmh 29.48 in998.3 mb 0.00 in0.0 mm 0.00 in0.0 mm 0.01 in0.3 mm
02:40 PM 63.9°F17.7°C 60.9°F16.1°C 90% 4.0 mph S6.4 kmh S 5.0 mph8.0 kmh 29.48 in998.3 mb 0.00 in0.0 mm 0.00 in0.0 mm 0.01 in0.3 mm
02:42 PM 64.2°F17.9°C 60.9°F16.1°C 89% 2.0 mph S3.2 kmh S 5.0 mph8.0 kmh 29.48 in998.3 mb 0.00 in0.0 mm 0.00 in0.0 mm 0.01 in0.3 mm
02:44 PM 64.5°F18.1°C 61.2°F16.2°C 89% 2.0 mph S3.2 kmh S 5.0 mph8.0 kmh 29.48 in998.3 mb 0.00 in0.0 mm 0.00 in0.0 mm 0.01 in0.3 mm
02:46 PM 64.9°F18.3°C 61.6°F16.4°C 89% 3.0 mph S4.8 kmh S 5.0 mph8.0 kmh 29.48 in998.3 mb 0.00 in0.0 mm 0.00 in0.0 mm 0.01 in0.3 mm
02:48 PM 65.3°F18.5°C 62.0°F16.7°C 89% 2.0 mph S3.2 kmh S 5.0 mph8.0 kmh 29.48 in998.3 mb 0.00 in0.0 mm 0.00 in0.0 mm 0.01 in0.3 mm
02:50 PM 65.7°F18.7°C 62.1°F16.7°C 88% 2.0 mph SSW3.2 kmh SSW 6.0 mph9.7 kmh 29.47 in998.0 mb 0.00 in0.0 mm 0.00 in0.0 mm 0.01 in0.3 mm
02:52 PM 66.1°F18.9°C 62.1°F16.7°C 87% 3.0 mph SSW4.8 kmh SSW 6.0 mph9.7 kmh 29.47 in998.0 mb 0.00 in0.0 mm 0.00 in0.0 mm 0.01 in0.3 mm
02:54 PM 66.5°F19.2°C 62.5°F16.9°C 87% 5.0 mph SW8.0 kmh SW 6.0 mph9.7 kmh 29.47 in998.0 mb 0.00 in0.0 mm 0.00 in0.0 mm 0.01 in0.3 mm
02:56 PM 66.8°F19.3°C 62.2°F16.8°C 85% 7.0 mph S11.3 kmh S 7.0 mph11.3 kmh 29.47 in998.0 mb 0.00 in0.0 mm 0.00 in0.0 mm 0.01 in0.3 mm
02:58 PM 67.0°F19.4°C 62.0°F16.7°C 84% 2.0 mph S3.2 kmh S 7.0 mph11.3 kmh 29.46 in997.6 mb 0.00 in0.0 mm 0.00 in0.0 mm 0.01 in0.3 mm
03:00 PM 67.2°F19.6°C 62.2°F16.8°C 84% 3.0 mph S4.8 kmh S 7.0 mph11.3 kmh 29.46 in997.6 mb 0.00 in0.0 mm 0.00 in0.0 mm 0.01 in0.3 mm
03:02 PM 67.5°F19.7°C 62.5°F16.9°C 84% 3.0 mph SSW4.8 kmh SSW 7.0 mph11.3 kmh 29.46 in997.6 mb 0.00 in0.0 mm 0.00 in0.0 mm 0.01 in0.3 mm
03:04 PM 67.8°F19.9°C 62.5°F16.9°C 83% Calm Calm 7.0 mph11.3 kmh 29.46 in997.6 mb 0.00 in0.0 mm 0.00 in0.0 mm 0.01 in0.3 mm
03:06 PM 68.1°F20.1°C 62.8°F17.1°C 83% 3.0 mph S4.8 kmh S 7.0 mph11.3 kmh 29.46 in997.6 mb 0.00 in0.0 mm 0.00 in0.0 mm 0.01 in0.3 mm
03:08 PM 68.3°F20.2°C 62.9°F17.2°C 83% 2.0 mph S3.2 kmh S 7.0 mph11.3 kmh 29.46 in997.6 mb 0.00 in0.0 mm 0.00 in0.0 mm 0.01 in0.3 mm
03:10 PM 68.7°F20.4°C 63.3°F17.4°C 83% 4.0 mph SSW6.4 kmh SSW 7.0 mph11.3 kmh 29.45 in997.3 mb 0.00 in0.0 mm 0.00 in0.0 mm 0.01 in0.3 mm
03:12 PM 69.0°F20.6°C 63.3°F17.4°C 82% 4.0 mph S6.4 kmh S 7.0 mph11.3 kmh 29.46 in997.6 mb 0.00 in0.0 mm 0.00 in0.0 mm 0.01 in0.3 mm
03:14 PM 69.2°F20.7°C 62.8°F17.1°C 80% 6.0 mph SSW9.7 kmh SSW 7.0 mph11.3 kmh 29.46 in997.6 mb 0.00 in0.0 mm 0.00 in0.0 mm 0.01 in0.3 mm
03:16 PM 69.3°F20.7°C 62.9°F17.2°C 80% 3.0 mph SSW4.8 kmh SSW 7.0 mph11.3 kmh 29.45 in997.3 mb 0.00 in0.0 mm 0.00 in0.0 mm 0.01 in0.3 mm
03:18 PM 69.5°F20.8°C 63.1°F17.3°C 80% 4.0 mph S6.4 kmh S 7.0 mph11.3 kmh 29.45 in997.3 mb 0.00 in0.0 mm 0.00 in0.0 mm 0.01 in0.3 mm
03:20 PM 69.4°F20.8°C 62.6°F17.0°C 79% 6.0 mph S9.7 kmh S 7.0 mph11.3 kmh 29.45 in997.3 mb 0.00 in0.0 mm 0.00 in0.0 mm 0.01 in0.3 mm
03:22 PM 69.3°F20.7°C 62.5°F16.9°C 79% 4.0 mph S6.4 kmh S 7.0 mph11.3 kmh 29.45 in997.3 mb 0.00 in0.0 mm 0.00 in0.0 mm 0.01 in0.3 mm
03:24 PM 69.2°F20.7°C 62.8°F17.1°C 80% 4.0 mph S6.4 kmh S 9.0 mph14.5 kmh 29.45 in997.3 mb 0.00 in0.0 mm 0.00 in0.0 mm 0.01 in0.3 mm
03:26 PM 69.1°F20.6°C 62.7°F17.1°C 80% 6.0 mph S9.7 kmh S 9.0 mph14.5 kmh 29.45 in997.3 mb 0.00 in0.0 mm 0.00 in0.0 mm 0.01 in0.3 mm
03:28 PM 69.0°F20.6°C 62.6°F17.0°C 80% 6.0 mph S9.7 kmh S 12.0 mph19.3 kmh 29.45 in997.3 mb 0.00 in0.0 mm 0.00 in0.0 mm 0.01 in0.3 mm
03:30 PM 68.9°F20.5°C 62.5°F16.9°C 80% 7.0 mph S11.3 kmh S 12.0 mph19.3 kmh 29.45 in997.3 mb 0.00 in0.0 mm 0.00 in0.0 mm 0.01 in0.3 mm
03:32 PM 68.7°F20.4°C 62.3°F16.8°C 80% 4.0 mph S6.4 kmh S 7.0 mph11.3 kmh 29.44 in997.0 mb 0.00 in0.0 mm 0.00 in0.0 mm 0.01 in0.3 mm
03:34 PM 68.7°F20.4°C 62.3°F16.8°C 80% 9.0 mph SSW14.5 kmh SSW 15.0 mph24.1 kmh 29.45 in997.3 mb 0.00 in0.0 mm 0.00 in0.0 mm 0.01 in0.3 mm
03:36 PM 68.6°F20.3°C 62.2°F16.8°C 80% 11.0 mph S17.7 kmh S 15.0 mph24.1 kmh 29.46 in997.6 mb 0.00 in0.0 mm 0.00 in0.0 mm 0.01 in0.3 mm
03:38 PM 68.3°F20.2°C 61.9°F16.6°C 80% 5.0 mph S8.0 kmh S 15.0 mph24.1 kmh 29.46 in997.6 mb 0.00 in0.0 mm 0.00 in0.0 mm 0.01 in0.3 mm
03:40 PM 67.9°F19.9°C 61.5°F16.4°C 80% 5.0 mph S8.0 kmh S 15.0 mph24.1 kmh 29.46 in997.6 mb 0.00 in0.0 mm 0.00 in0.0 mm 0.01 in0.3 mm
03:42 PM 67.7°F19.8°C 61.7°F16.5°C 81% 8.0 mph S12.9 kmh S 15.0 mph24.1 kmh 29.46 in997.6 mb 0.00 in0.0 mm 0.00 in0.0 mm 0.01 in0.3 mm
03:44 PM 67.5°F19.7°C 61.5°F16.4°C 81% 9.0 mph S14.5 kmh S 15.0 mph24.1 kmh 29.45 in997.3 mb 0.00 in0.0 mm 0.00 in0.0 mm 0.01 in0.3 mm
03:46 PM 67.4°F19.7°C 61.4°F16.3°C 81% 10.0 mph S16.1 kmh S 15.0 mph24.1 kmh 29.45 in997.3 mb 0.00 in0.0 mm 0.00 in0.0 mm 0.01 in0.3 mm
03:48 PM 67.3°F19.6°C 61.6°F16.4°C 82% 8.0 mph SSW12.9 kmh SSW 15.0 mph24.1 kmh 29.45 in997.3 mb 0.00 in0.0 mm 0.00 in0.0 mm 0.01 in0.3 mm
03:50 PM 67.3°F19.6°C 61.6°F16.4°C 82% 5.0 mph SW8.0 kmh SW 15.0 mph24.1 kmh 29.44 in997.0 mb 0.00 in0.0 mm 0.00 in0.0 mm 0.01 in0.3 mm
03:52 PM 67.3°F19.6°C 61.6°F16.4°C 82% 4.0 mph S6.4 kmh S 15.0 mph24.1 kmh 29.44 in997.0 mb 0.00 in0.0 mm 0.00 in0.0 mm 0.01 in0.3 mm
03:54 PM 67.2°F19.6°C 61.2°F16.2°C 81% 7.0 mph S11.3 kmh S 15.0 mph24.1 kmh 29.45 in997.3 mb 0.00 in0.0 mm 0.00 in0.0 mm 0.01 in0.3 mm
03:56 PM 66.9°F19.4°C 60.9°F16.1°C 81% 7.0 mph S11.3 kmh S 15.0 mph24.1 kmh 29.45 in997.3 mb 0.00 in0.0 mm 0.00 in0.0 mm 0.01 in0.3 mm
03:58 PM 66.5°F19.2°C 60.5°F15.8°C 81% 10.0 mph S16.1 kmh S 15.0 mph24.1 kmh 29.45 in997.3 mb 0.00 in0.0 mm 0.00 in0.0 mm 0.01 in0.3 mm
04:00 PM 66.1°F18.9°C 60.5°F15.8°C 82% 6.0 mph SSE9.7 kmh SSE 12.0 mph19.3 kmh 29.44 in997.0 mb 0.00 in0.0 mm 0.00 in0.0 mm 0.01 in0.3 mm
04:02 PM 65.7°F18.7°C 60.1°F15.6°C 82% 8.0 mph S12.9 kmh S 12.0 mph19.3 kmh 29.45 in997.3 mb 0.00 in0.0 mm 0.00 in0.0 mm 0.01 in0.3 mm
04:04 PM 65.4°F18.6°C 60.1°F15.6°C 83% 5.0 mph S8.0 kmh S 12.0 mph19.3 kmh 29.45 in997.3 mb 0.00 in0.0 mm 0.00 in0.0 mm 0.01 in0.3 mm
04:06 PM 65.2°F18.4°C 59.9°F15.5°C 83% 6.0 mph S9.7 kmh S 14.0 mph22.5 kmh 29.45 in997.3 mb 0.00 in0.0 mm 0.00 in0.0 mm 0.01 in0.3 mm
04:08 PM 65.0°F18.3°C 60.1°F15.6°C 84% 8.0 mph SSW12.9 kmh SSW 14.0 mph22.5 kmh 29.44 in997.0 mb 0.00 in0.0 mm 0.00 in0.0 mm 0.01 in0.3 mm
04:10 PM 65.1°F18.4°C 60.5°F15.8°C 85% 10.0 mph SW16.1 kmh SW 14.0 mph22.5 kmh 29.44 in997.0 mb 0.00 in0.0 mm 0.00 in0.0 mm 0.01 in0.3 mm
04:12 PM 65.1°F18.4°C 59.8°F15.4°C 83% 6.0 mph S9.7 kmh S 15.0 mph24.1 kmh 29.44 in997.0 mb 0.00 in0.0 mm 0.00 in0.0 mm 0.01 in0.3 mm
04:14 PM 65.1°F18.4°C 59.8°F15.4°C 83% 10.0 mph S16.1 kmh S 15.0 mph24.1 kmh 29.44 in997.0 mb 0.00 in0.0 mm 0.00 in0.0 mm 0.01 in0.3 mm
04:16 PM 65.0°F18.3°C 59.7°F15.4°C 83% 5.0 mph S8.0 kmh S 15.0 mph24.1 kmh 29.44 in997.0 mb 0.00 in0.0 mm 0.00 in0.0 mm 0.01 in0.3 mm
04:18 PM 64.9°F18.3°C 59.6°F15.3°C 83% 4.0 mph S6.4 kmh S 15.0 mph24.1 kmh 29.44 in997.0 mb 0.00 in0.0 mm 0.00 in0.0 mm 0.01 in0.3 mm
04:20 PM 65.0°F18.3°C 59.7°F15.4°C 83% 12.0 mph S19.3 kmh S 15.0 mph24.1 kmh 29.44 in997.0 mb 0.00 in0.0 mm 0.00 in0.0 mm 0.01 in0.3 mm
04:22 PM 65.0°F18.3°C 59.7°F15.4°C 83% 10.0 mph SW16.1 kmh SW 15.0 mph24.1 kmh 29.44 in997.0 mb 0.00 in0.0 mm 0.00 in0.0 mm 0.01 in0.3 mm
04:24 PM 65.0°F18.3°C 59.7°F15.4°C 83% 6.0 mph SSW9.7 kmh SSW 15.0 mph24.1 kmh 29.44 in997.0 mb 0.00 in0.0 mm 0.00 in0.0 mm 0.01 in0.3 mm
04:26 PM 65.2°F18.4°C 59.9°F15.5°C 83% 3.0 mph SSW4.8 kmh SSW 15.0 mph24.1 kmh 29.44 in997.0 mb 0.00 in0.0 mm 0.00 in0.0 mm 0.01 in0.3 mm
04:28 PM 65.2°F18.4°C 59.9°F15.5°C 83% 4.0 mph S6.4 kmh S 15.0 mph24.1 kmh 29.44 in997.0 mb 0.00 in0.0 mm 0.00 in0.0 mm 0.01 in0.3 mm
04:30 PM 65.3°F18.5°C 59.7°F15.4°C 82% 9.0 mph S14.5 kmh S 15.0 mph24.1 kmh 29.44 in997.0 mb 0.00 in0.0 mm 0.00 in0.0 mm 0.01 in0.3 mm
04:32 PM 65.1°F18.4°C 59.5°F15.3°C 82% 5.0 mph S8.0 kmh S 7.0 mph11.3 kmh 29.44 in997.0 mb 0.00 in0.0 mm 0.00 in0.0 mm 0.01 in0.3 mm
04:34 PM 64.9°F18.3°C 59.3°F15.2°C 82% 6.0 mph S9.7 kmh S 8.0 mph12.9 kmh 29.43 in996.6 mb 0.00 in0.0 mm 0.00 in0.0 mm 0.01 in0.3 mm
04:36 PM 64.9°F18.3°C 59.6°F15.3°C 83% 10.0 mph SW16.1 kmh SW 12.0 mph19.3 kmh 29.43 in996.6 mb 0.00 in0.0 mm 0.00 in0.0 mm 0.01 in0.3 mm
04:38 PM 64.8°F18.2°C 59.5°F15.3°C 83% 6.0 mph SSW9.7 kmh SSW 12.0 mph19.3 kmh 29.44 in997.0 mb 0.00 in0.0 mm 0.00 in0.0 mm 0.01 in0.3 mm
04:40 PM 64.7°F18.2°C 59.1°F15.1°C 82% 8.0 mph S12.9 kmh S 13.0 mph20.9 kmh 29.44 in997.0 mb 0.00 in0.0 mm 0.00 in0.0 mm 0.01 in0.3 mm
04:42 PM 64.5°F18.1°C 58.9°F14.9°C 82% 6.0 mph SW9.7 kmh SW 13.0 mph20.9 kmh 29.44 in997.0 mb 0.00 in0.0 mm 0.00 in0.0 mm 0.01 in0.3 mm
04:44 PM 64.4°F18.0°C 59.1°F15.1°C 83% 9.0 mph S14.5 kmh S 13.0 mph20.9 kmh 29.44 in997.0 mb 0.00 in0.0 mm 0.00 in0.0 mm 0.01 in0.3 mm
04:46 PM 64.3°F17.9°C 59.0°F15.0°C 83% 7.0 mph S11.3 kmh S 13.0 mph20.9 kmh 29.44 in997.0 mb 0.00 in0.0 mm 0.00 in0.0 mm 0.01 in0.3 mm
04:48 PM 64.0°F17.8°C 58.7°F14.8°C 83% 4.0 mph S6.4 kmh S 13.0 mph20.9 kmh 29.44 in997.0 mb 0.00 in0.0 mm 0.00 in0.0 mm 0.01 in0.3 mm
04:50 PM 63.8°F17.7°C 58.5°F14.7°C 83% 3.0 mph S4.8 kmh S 13.0 mph20.9 kmh 29.43 in996.6 mb 0.00 in0.0 mm 0.00 in0.0 mm 0.01 in0.3 mm
04:52 PM 63.8°F17.7°C 58.9°F14.9°C 84% 4.0 mph S6.4 kmh S 13.0 mph20.9 kmh 29.44 in997.0 mb 0.00 in0.0 mm 0.00 in0.0 mm 0.01 in0.3 mm
04:54 PM 63.7°F17.6°C 58.8°F14.9°C 84% 7.0 mph SW11.3 kmh SW 13.0 mph20.9 kmh 29.43 in996.6 mb 0.00 in0.0 mm 0.00 in0.0 mm 0.01 in0.3 mm
04:56 PM 63.8°F17.7°C 58.9°F14.9°C 84% 10.0 mph S16.1 kmh S 13.0 mph20.9 kmh 29.43 in996.6 mb 0.00 in0.0 mm 0.00 in0.0 mm 0.01 in0.3 mm
04:58 PM 63.8°F17.7°C 58.9°F14.9°C 84% 6.0 mph SSW9.7 kmh SSW 13.0 mph20.9 kmh 29.43 in996.6 mb 0.00 in0.0 mm 0.00 in0.0 mm 0.01 in0.3 mm
05:00 PM 63.8°F17.7°C 58.9°F14.9°C 84% 4.0 mph SW6.4 kmh SW 9.0 mph14.5 kmh 29.44 in997.0 mb 0.00 in0.0 mm 0.00 in0.0 mm 0.01 in0.3 mm
05:02 PM 63.8°F17.7°C 58.9°F14.9°C 84% 7.0 mph S11.3 kmh S 9.0 mph14.5 kmh 29.44 in997.0 mb 0.00 in0.0 mm 0.00 in0.0 mm 0.01 in0.3 mm
05:04 PM 63.8°F17.7°C 58.5°F14.7°C 83% 5.0 mph S8.0 kmh S 9.0 mph14.5 kmh 29.44 in997.0 mb 0.00 in0.0 mm 0.00 in0.0 mm 0.01 in0.3 mm
05:06 PM 63.8°F17.7°C 58.9°F14.9°C 84% 3.0 mph SSW4.8 kmh SSW 9.0 mph14.5 kmh 29.44 in997.0 mb 0.00 in0.0 mm 0.00 in0.0 mm 0.01 in0.3 mm
05:08 PM 63.9°F17.7°C 59.0°F15.0°C 84% 4.0 mph SW6.4 kmh SW 9.0 mph14.5 kmh 29.44 in997.0 mb 0.00 in0.0 mm 0.00 in0.0 mm 0.01 in0.3 mm
05:10 PM 63.9°F17.7°C 58.6°F14.8°C 83% 4.0 mph S6.4 kmh S 9.0 mph14.5 kmh 29.43 in996.6 mb 0.00 in0.0 mm 0.00 in0.0 mm 0.01 in0.3 mm
05:12 PM 63.9°F17.7°C 59.0°F15.0°C 84% 4.0 mph S6.4 kmh S 9.0 mph14.5 kmh 29.43 in996.6 mb 0.00 in0.0 mm 0.00 in0.0 mm 0.01 in0.3 mm
05:14 PM 64.0°F17.8°C 58.7°F14.8°C 83% 2.0 mph S3.2 kmh S 9.0 mph14.5 kmh 29.43 in996.6 mb 0.00 in0.0 mm 0.00 in0.0 mm 0.01 in0.3 mm
05:16 PM 64.0°F17.8°C 58.7°F14.8°C 83% 1.0 mph SSW1.6 kmh SSW 9.0 mph14.5 kmh 29.43 in996.6 mb 0.00 in0.0 mm 0.00 in0.0 mm 0.01 in0.3 mm
05:18 PM 64.1°F17.8°C 59.2°F15.1°C 84% 2.0 mph SSW3.2 kmh SSW 9.0 mph14.5 kmh 29.44 in997.0 mb 0.00 in0.0 mm 0.00 in0.0 mm 0.01 in0.3 mm
05:20 PM 64.1°F17.8°C 58.8°F14.9°C 83% 2.0 mph SSW3.2 kmh SSW 9.0 mph14.5 kmh 29.43 in996.6 mb 0.00 in0.0 mm 0.00 in0.0 mm 0.01 in0.3 mm
05:22 PM 64.2°F17.9°C 58.9°F14.9°C 83% 1.0 mph SSW1.6 kmh SSW 9.0 mph14.5 kmh 29.43 in996.6 mb 0.00 in0.0 mm 0.00 in0.0 mm 0.01 in0.3 mm
05:24 PM 64.3°F17.9°C 59.0°F15.0°C 83% 2.0 mph SSW3.2 kmh SSW 9.0 mph14.5 kmh 29.43 in996.6 mb 0.00 in0.0 mm 0.00 in0.0 mm 0.01 in0.3 mm
05:26 PM 64.4°F18.0°C 59.1°F15.1°C 83% 2.0 mph S3.2 kmh S 9.0 mph14.5 kmh 29.43 in996.6 mb 0.00 in0.0 mm 0.00 in0.0 mm 0.01 in0.3 mm
05:28 PM 64.4°F18.0°C 59.1°F15.1°C 83% 4.0 mph S6.4 kmh S 9.0 mph14.5 kmh 29.43 in996.6 mb 0.00 in0.0 mm 0.00 in0.0 mm 0.01 in0.3 mm
05:30 PM 64.5°F18.1°C 59.2°F15.1°C 83% 4.0 mph SSW6.4 kmh SSW 4.0 mph6.4 kmh 29.43 in996.6 mb 0.00 in0.0 mm 0.00 in0.0 mm 0.01 in0.3 mm
05:32 PM 64.6°F18.1°C 59.3°F15.2°C 83% 3.0 mph S4.8 kmh S 12.0 mph19.3 kmh 29.43 in996.6 mb 0.00 in0.0 mm 0.00 in0.0 mm 0.01 in0.3 mm
05:34 PM 64.6°F18.1°C 59.3°F15.2°C 83% 1.0 mph S1.6 kmh S 12.0 mph19.3 kmh 29.42 in996.3 mb 0.00 in0.0 mm 0.00 in0.0 mm 0.01 in0.3 mm
05:36 PM 64.7°F18.2°C 59.4°F15.2°C 83% 5.0 mph S8.0 kmh S 12.0 mph19.3 kmh 29.43 in996.6 mb 0.00 in0.0 mm 0.00 in0.0 mm 0.01 in0.3 mm
05:38 PM 64.8°F18.2°C 59.2°F15.1°C 82% Calm Calm 12.0 mph19.3 kmh 29.43 in996.6 mb 0.00 in0.0 mm 0.00 in0.0 mm 0.01 in0.3 mm
05:40 PM 65.0°F18.3°C 59.7°F15.4°C 83% 5.0 mph S8.0 kmh S 12.0 mph19.3 kmh 29.43 in996.6 mb 0.00 in0.0 mm 0.00 in0.0 mm 0.01 in0.3 mm
05:42 PM 65.1°F18.4°C 59.8°F15.4°C 83% 4.0 mph S6.4 kmh S 12.0 mph19.3 kmh 29.43 in996.6 mb 0.00 in0.0 mm 0.00 in0.0 mm 0.01 in0.3 mm
05:44 PM 65.3°F18.5°C 59.7°F15.4°C 82% 5.0 mph S8.0 kmh S 12.0 mph19.3 kmh 29.43 in996.6 mb 0.00 in0.0 mm 0.00 in0.0 mm 0.01 in0.3 mm
05:46 PM 65.3°F18.5°C 59.3°F15.2°C 81% 4.0 mph S6.4 kmh S 12.0 mph19.3 kmh 29.43 in996.6 mb 0.00 in0.0 mm 0.00 in0.0 mm 0.01 in0.3 mm
05:48 PM 65.4°F18.6°C 59.8°F15.4°C 82% 4.0 mph S6.4 kmh S 12.0 mph19.3 kmh 29.43 in996.6 mb 0.00 in0.0 mm 0.00 in0.0 mm 0.01 in0.3 mm
05:50 PM 65.5°F18.6°C 60.2°F15.7°C 83% 2.0 mph S3.2 kmh S 12.0 mph19.3 kmh 29.43 in996.6 mb 0.00 in0.0 mm 0.00 in0.0 mm 0.01 in0.3 mm
05:52 PM 65.6°F18.7°C 59.6°F15.3°C 81% 6.0 mph S9.7 kmh S 12.0 mph19.3 kmh 29.43 in996.6 mb 0.00 in0.0 mm 0.00 in0.0 mm 0.01 in0.3 mm
05:54 PM 65.7°F18.7°C 59.7°F15.4°C 81% 2.0 mph S3.2 kmh S 12.0 mph19.3 kmh 29.43 in996.6 mb 0.00 in0.0 mm 0.00 in0.0 mm 0.01 in0.3 mm
05:56 PM 65.7°F18.7°C 59.7°F15.4°C 81% 3.0 mph SSW4.8 kmh SSW 12.0 mph19.3 kmh 29.43 in996.6 mb 0.00 in0.0 mm 0.00 in0.0 mm 0.01 in0.3 mm
05:58 PM 65.7°F18.7°C 59.7°F15.4°C 81% 6.0 mph S9.7 kmh S 12.0 mph19.3 kmh 29.43 in996.6 mb 0.00 in0.0 mm 0.00 in0.0 mm 0.01 in0.3 mm
06:00 PM 65.7°F18.7°C 59.7°F15.4°C 81% 6.0 mph SSW9.7 kmh SSW 6.0 mph9.7 kmh 29.43 in996.6 mb 0.00 in0.0 mm 0.00 in0.0 mm 0.01 in0.3 mm
06:02 PM 65.6°F18.7°C 59.6°F15.3°C 81% 4.0 mph S6.4 kmh S 12.0 mph19.3 kmh 29.43 in996.6 mb 0.00 in0.0 mm 0.00 in0.0 mm 0.01 in0.3 mm
06:04 PM 65.6°F18.7°C 59.6°F15.3°C 81% 3.0 mph SW4.8 kmh SW 12.0 mph19.3 kmh 29.43 in996.6 mb 0.00 in0.0 mm 0.00 in0.0 mm 0.01 in0.3 mm
06:06 PM 65.5°F18.6°C 59.5°F15.3°C 81% 4.0 mph S6.4 kmh S 12.0 mph19.3 kmh 29.43 in996.6 mb 0.00 in0.0 mm 0.00 in0.0 mm 0.01 in0.3 mm
06:08 PM 65.4°F18.6°C 59.4°F15.2°C 81% 4.0 mph S6.4 kmh S 12.0 mph19.3 kmh 29.43 in996.6 mb 0.00 in0.0 mm 0.00 in0.0 mm 0.01 in0.3 mm
06:10 PM 65.4°F18.6°C 59.4°F15.2°C 81% 3.0 mph SW4.8 kmh SW 12.0 mph19.3 kmh 29.43 in996.6 mb 0.00 in0.0 mm 0.00 in0.0 mm 0.01 in0.3 mm
06:12 PM 65.4°F18.6°C 59.4°F15.2°C 81% 5.0 mph SSW8.0 kmh SSW 12.0 mph19.3 kmh 29.43 in996.6 mb 0.00 in0.0 mm 0.00 in0.0 mm 0.01 in0.3 mm
06:14 PM 65.3°F18.5°C 59.3°F15.2°C 81% 4.0 mph S6.4 kmh S 12.0 mph19.3 kmh 29.43 in996.6 mb 0.00 in0.0 mm 0.00 in0.0 mm 0.01 in0.3 mm
06:16 PM 65.2°F18.4°C 59.2°F15.1°C 81% 5.0 mph S8.0 kmh S 12.0 mph19.3 kmh 29.43 in996.6 mb 0.00 in0.0 mm 0.00 in0.0 mm 0.01 in0.3 mm
06:18 PM 65.0°F18.3°C 59.4°F15.2°C 82% 5.0 mph S8.0 kmh S 12.0 mph19.3 kmh 29.44 in997.0 mb 0.00 in0.0 mm 0.00 in0.0 mm 0.01 in0.3 mm
06:20 PM 64.9°F18.3°C 59.3°F15.2°C 82% 5.0 mph SW8.0 kmh SW 12.0 mph19.3 kmh 29.45 in997.3 mb 0.00 in0.0 mm 0.00 in0.0 mm 0.01 in0.3 mm
06:22 PM 64.8°F18.2°C 59.2°F15.1°C 82% 5.0 mph SSW8.0 kmh SSW 12.0 mph19.3 kmh 29.46 in997.6 mb 0.00 in0.0 mm 0.00 in0.0 mm 0.01 in0.3 mm
06:24 PM 64.7°F18.2°C 59.1°F15.1°C 82% 5.0 mph S8.0 kmh S 12.0 mph19.3 kmh 29.46 in997.6 mb 0.00 in0.0 mm 0.00 in0.0 mm 0.01 in0.3 mm
06:26 PM 64.6°F18.1°C 59.3°F15.2°C 83% 5.0 mph S8.0 kmh S 12.0 mph19.3 kmh 29.46 in997.6 mb 0.00 in0.0 mm 0.00 in0.0 mm 0.01 in0.3 mm
06:28 PM 64.5°F18.1°C 59.2°F15.1°C 83% 3.0 mph SSW4.8 kmh SSW 12.0 mph19.3 kmh 29.46 in997.6 mb 0.00 in0.0 mm 0.00 in0.0 mm 0.01 in0.3 mm
06:30 PM 64.5°F18.1°C 59.2°F15.1°C 83% 3.0 mph SW4.8 kmh SW 4.0 mph6.4 kmh 29.46 in997.6 mb 0.00 in0.0 mm 0.00 in0.0 mm 0.01 in0.3 mm
06:32 PM 64.4°F18.0°C 59.1°F15.1°C 83% 3.0 mph SW4.8 kmh SW 9.0 mph14.5 kmh 29.46 in997.6 mb 0.00 in0.0 mm 0.00 in0.0 mm 0.01 in0.3 mm
06:34 PM 64.4°F18.0°C 59.1°F15.1°C 83% 5.0 mph SW8.0 kmh SW 9.0 mph14.5 kmh 29.47 in998.0 mb 0.00 in0.0 mm 0.00 in0.0 mm 0.01 in0.3 mm
06:36 PM 64.3°F17.9°C 59.4°F15.2°C 84% 5.0 mph SSW8.0 kmh SSW 9.0 mph14.5 kmh 29.47 in998.0 mb 0.00 in0.0 mm 0.00 in0.0 mm 0.01 in0.3 mm
06:38 PM 64.2°F17.9°C 58.9°F14.9°C 83% 8.0 mph S12.9 kmh S 9.0 mph14.5 kmh 29.47 in998.0 mb 0.00 in0.0 mm 0.00 in0.0 mm 0.01 in0.3 mm
06:40 PM 64.2°F17.9°C 58.9°F14.9°C 83% 3.0 mph SSW4.8 kmh SSW 11.0 mph17.7 kmh 29.47 in998.0 mb 0.00 in0.0 mm 0.00 in0.0 mm 0.01 in0.3 mm
06:42 PM 64.1°F17.8°C 59.2°F15.1°C 84% 4.0 mph SSW6.4 kmh SSW 11.0 mph17.7 kmh 29.47 in998.0 mb 0.00 in0.0 mm 0.00 in0.0 mm 0.01 in0.3 mm
06:44 PM 64.1°F17.8°C 59.2°F15.1°C 84% 7.0 mph SSW11.3 kmh SSW 11.0 mph17.7 kmh 29.47 in998.0 mb 0.00 in0.0 mm 0.00 in0.0 mm 0.01 in0.3 mm
06:46 PM 64.0°F17.8°C 59.1°F15.1°C 84% 3.0 mph SSW4.8 kmh SSW 11.0 mph17.7 kmh 29.47 in998.0 mb 0.00 in0.0 mm 0.00 in0.0 mm 0.01 in0.3 mm
06:48 PM 64.0°F17.8°C 59.1°F15.1°C 84% 3.0 mph SSW4.8 kmh SSW 11.0 mph17.7 kmh 29.47 in998.0 mb 0.00 in0.0 mm 0.00 in0.0 mm 0.01 in0.3 mm
06:50 PM 64.0°F17.8°C 59.1°F15.1°C 84% 6.0 mph SW9.7 kmh SW 11.0 mph17.7 kmh 29.47 in998.0 mb 0.00 in0.0 mm 0.00 in0.0 mm 0.01 in0.3 mm
06:52 PM 63.9°F17.7°C 59.0°F15.0°C 84% 2.0 mph SW3.2 kmh SW 11.0 mph17.7 kmh 29.48 in998.3 mb 0.00 in0.0 mm 0.00 in0.0 mm 0.01 in0.3 mm
06:54 PM 63.9°F17.7°C 59.0°F15.0°C 84% 2.0 mph SW3.2 kmh SW 11.0 mph17.7 kmh 29.49 in998.6 mb 0.00 in0.0 mm 0.00 in0.0 mm 0.01 in0.3 mm
06:56 PM 63.9°F17.7°C 59.0°F15.0°C 84% 9.0 mph W14.5 kmh W 11.0 mph17.7 kmh 29.50 in999.0 mb 0.00 in0.0 mm 0.00 in0.0 mm 0.01 in0.3 mm
06:58 PM 63.9°F17.7°C 59.0°F15.0°C 84% 4.0 mph W6.4 kmh W 11.0 mph17.7 kmh 29.50 in999.0 mb 0.00 in0.0 mm 0.00 in0.0 mm 0.01 in0.3 mm
07:00 PM 63.8°F17.7°C 59.2°F15.1°C 85% 5.0 mph W8.0 kmh W 11.0 mph17.7 kmh 29.50 in999.0 mb 0.00 in0.0 mm 0.00 in0.0 mm 0.01 in0.3 mm
07:02 PM 63.8°F17.7°C 59.2°F15.1°C 85% Calm Calm 5.0 mph8.0 kmh 29.50 in999.0 mb 0.00 in0.0 mm 0.00 in0.0 mm 0.01 in0.3 mm
07:04 PM 63.8°F17.7°C 59.2°F15.1°C 85% 2.0 mph W3.2 kmh W 5.0 mph8.0 kmh 29.49 in998.6 mb 0.00 in0.0 mm 0.00 in0.0 mm 0.01 in0.3 mm
07:06 PM 63.8°F17.7°C 59.5°F15.3°C 86% 3.0 mph W4.8 kmh W 5.0 mph8.0 kmh 29.49 in998.6 mb 0.00 in0.0 mm 0.00 in0.0 mm 0.01 in0.3 mm
07:08 PM 63.7°F17.6°C 59.4°F15.2°C 86% 2.0 mph W3.2 kmh W 5.0 mph8.0 kmh 29.49 in998.6 mb 0.00 in0.0 mm 0.00 in0.0 mm 0.01 in0.3 mm
07:10 PM 63.6°F17.6°C 59.3°F15.2°C 86% 3.0 mph W4.8 kmh W 5.0 mph8.0 kmh 29.49 in998.6 mb 0.01 in0.3 mm 0.30 in7.6 mm 0.02 in0.5 mm
07:12 PM 63.4°F17.4°C 59.2°F15.1°C 86% 4.0 mph SSW6.4 kmh SSW 6.0 mph9.7 kmh 29.49 in998.6 mb 0.01 in0.3 mm 0.00 in0.0 mm 0.02 in0.5 mm
07:14 PM 63.4°F17.4°C 59.5°F15.3°C 87% 3.0 mph SSW4.8 kmh SSW 6.0 mph9.7 kmh 29.49 in998.6 mb 0.01 in0.3 mm 0.00 in0.0 mm 0.02 in0.5 mm
07:16 PM 63.2°F17.3°C 59.3°F15.2°C 87% 2.0 mph SSW3.2 kmh SSW 6.0 mph9.7 kmh 29.49 in998.6 mb 0.01 in0.3 mm 0.00 in0.0 mm 0.02 in0.5 mm
07:18 PM 63.1°F17.3°C 59.5°F15.3°C 88% 3.0 mph SSW4.8 kmh SSW 6.0 mph9.7 kmh 29.49 in998.6 mb 0.01 in0.3 mm 0.00 in0.0 mm 0.02 in0.5 mm
07:20 PM 63.0°F17.2°C 59.4°F15.2°C 88% 3.0 mph SSW4.8 kmh SSW 6.0 mph9.7 kmh 29.49 in998.6 mb 0.01 in0.3 mm 0.00 in0.0 mm 0.02 in0.5 mm
07:22 PM 62.9°F17.2°C 59.3°F15.2°C 88% 3.0 mph SSW4.8 kmh SSW 6.0 mph9.7 kmh 29.49 in998.6 mb 0.01 in0.3 mm 0.00 in0.0 mm 0.02 in0.5 mm
07:24 PM 62.8°F17.1°C 59.5°F15.3°C 89% 2.0 mph SSW3.2 kmh SSW 6.0 mph9.7 kmh 29.49 in998.6 mb 0.01 in0.3 mm 0.00 in0.0 mm 0.02 in0.5 mm
07:26 PM 62.7°F17.1°C 59.1°F15.1°C 88% 2.0 mph S3.2 kmh S 6.0 mph9.7 kmh 29.49 in998.6 mb 0.01 in0.3 mm 0.00 in0.0 mm 0.02 in0.5 mm
07:28 PM 62.6°F17.0°C 59.3°F15.2°C 89% 2.0 mph S3.2 kmh S 6.0 mph9.7 kmh 29.49 in998.6 mb 0.01 in0.3 mm 0.00 in0.0 mm 0.02 in0.5 mm
07:31 PM 62.5°F16.9°C 59.2°F15.1°C 89% 2.0 mph S3.2 kmh S 4.0 mph6.4 kmh 29.49 in998.6 mb 0.01 in0.3 mm 0.00 in0.0 mm 0.02 in0.5 mm
07:34 PM 62.5°F16.9°C 59.2°F15.1°C 89% 3.0 mph S4.8 kmh S 4.0 mph6.4 kmh 29.49 in998.6 mb 0.01 in0.3 mm 0.00 in0.0 mm 0.02 in0.5 mm
07:36 PM 62.3°F16.8°C 59.0°F15.0°C 89% 1.0 mph S1.6 kmh S 4.0 mph6.4 kmh 29.49 in998.6 mb 0.01 in0.3 mm 0.00 in0.0 mm 0.02 in0.5 mm
07:38 PM 62.3°F16.8°C 59.0°F15.0°C 89% 1.0 mph S1.6 kmh S 4.0 mph6.4 kmh 29.49 in998.6 mb 0.01 in0.3 mm 0.00 in0.0 mm 0.02 in0.5 mm
07:40 PM 62.3°F16.8°C 59.3°F15.2°C 90% 1.0 mph S1.6 kmh S 4.0 mph6.4 kmh 29.49 in998.6 mb 0.01 in0.3 mm 0.00 in0.0 mm 0.02 in0.5 mm
07:42 PM 62.2°F16.8°C 59.2°F15.1°C 90% 2.0 mph S3.2 kmh S 4.0 mph6.4 kmh 29.49 in998.6 mb 0.01 in0.3 mm 0.00 in0.0 mm 0.02 in0.5 mm
07:44 PM 62.2°F16.8°C 59.2°F15.1°C 90% 2.0 mph S3.2 kmh S 4.0 mph6.4 kmh 29.49 in998.6 mb 0.01 in0.3 mm 0.00 in0.0 mm 0.02 in0.5 mm
07:46 PM 62.2°F16.8°C 59.2°F15.1°C 90% 1.0 mph S1.6 kmh S 4.0 mph6.4 kmh 29.49 in998.6 mb 0.01 in0.3 mm 0.00 in0.0 mm 0.02 in0.5 mm
07:48 PM 62.1°F16.7°C 59.1°F15.1°C 90% 3.0 mph S4.8 kmh S 4.0 mph6.4 kmh 29.49 in998.6 mb 0.01 in0.3 mm 0.00 in0.0 mm 0.02 in0.5 mm
07:50 PM 62.1°F16.7°C 59.1°F15.1°C 90% 2.0 mph S3.2 kmh S 4.0 mph6.4 kmh 29.48 in998.3 mb 0.01 in0.3 mm 0.00 in0.0 mm 0.02 in0.5 mm
07:52 PM 62.0°F16.7°C 59.0°F15.0°C 90% 1.0 mph S1.6 kmh S 4.0 mph6.4 kmh 29.49 in998.6 mb 0.01 in0.3 mm 0.00 in0.0 mm 0.02 in0.5 mm
07:54 PM 61.9°F16.6°C 58.9°F14.9°C 90% 3.0 mph S4.8 kmh S 4.0 mph6.4 kmh 29.49 in998.6 mb 0.01 in0.3 mm 0.00 in0.0 mm 0.02 in0.5 mm
07:56 PM 61.8°F16.6°C 59.5°F15.3°C 92% 4.0 mph S6.4 kmh S 4.0 mph6.4 kmh 29.49 in998.6 mb 0.01 in0.3 mm 0.00 in0.0 mm 0.02 in0.5 mm
07:58 PM 61.8°F16.6°C 58.8°F14.9°C 90% 3.0 mph S4.8 kmh S 5.0 mph8.0 kmh 29.49 in998.6 mb 0.01 in0.3 mm 0.00 in0.0 mm 0.02 in0.5 mm
08:00 PM 61.7°F16.5°C 58.7°F14.8°C 90% 4.0 mph S6.4 kmh S 4.0 mph6.4 kmh 29.48 in998.3 mb 0.01 in0.3 mm 0.00 in0.0 mm 0.02 in0.5 mm
08:02 PM 61.7°F16.5°C 58.7°F14.8°C 90% 3.0 mph S4.8 kmh S 5.0 mph8.0 kmh 29.49 in998.6 mb 0.01 in0.3 mm 0.00 in0.0 mm 0.02 in0.5 mm
08:04 PM 61.6°F16.4°C 59.0°F15.0°C 91% 3.0 mph S4.8 kmh S 5.0 mph8.0 kmh 29.49 in998.6 mb 0.01 in0.3 mm 0.00 in0.0 mm 0.02 in0.5 mm
08:06 PM 61.6°F16.4°C 59.0°F15.0°C 91% 3.0 mph S4.8 kmh S 5.0 mph8.0 kmh 29.49 in998.6 mb 0.01 in0.3 mm 0.00 in0.0 mm 0.02 in0.5 mm
08:08 PM 61.6°F16.4°C 59.0°F15.0°C 91% 3.0 mph S4.8 kmh S 5.0 mph8.0 kmh 29.49 in998.6 mb 0.01 in0.3 mm 0.00 in0.0 mm 0.02 in0.5 mm
08:10 PM 61.5°F16.4°C 58.9°F14.9°C 91% 2.0 mph S3.2 kmh S 5.0 mph8.0 kmh 29.48 in998.3 mb 0.01 in0.3 mm 0.00 in0.0 mm 0.02 in0.5 mm
08:12 PM 61.5°F16.4°C 58.9°F14.9°C 91% 3.0 mph S4.8 kmh S 5.0 mph8.0 kmh 29.48 in998.3 mb 0.01 in0.3 mm 0.00 in0.0 mm 0.02 in0.5 mm
08:14 PM 61.4°F16.3°C 58.8°F14.9°C 91% 1.0 mph S1.6 kmh S 5.0 mph8.0 kmh 29.48 in998.3 mb 0.01 in0.3 mm 0.00 in0.0 mm 0.02 in0.5 mm
08:16 PM 61.4°F16.3°C 58.8°F14.9°C 91% 2.0 mph S3.2 kmh S 5.0 mph8.0 kmh 29.48 in998.3 mb 0.01 in0.3 mm 0.00 in0.0 mm 0.02 in0.5 mm
08:18 PM 61.3°F16.3°C 58.7°F14.8°C 91% 2.0 mph S3.2 kmh S 5.0 mph8.0 kmh 29.49 in998.6 mb 0.01 in0.3 mm 0.00 in0.0 mm 0.02 in0.5 mm
08:20 PM 61.3°F16.3°C 58.7°F14.8°C 91% 2.0 mph S3.2 kmh S 5.0 mph8.0 kmh 29.48 in998.3 mb 0.01 in0.3 mm 0.00 in0.0 mm 0.02 in0.5 mm
08:22 PM 61.2°F16.2°C 58.6°F14.8°C 91% 3.0 mph S4.8 kmh S 6.0 mph9.7 kmh 29.49 in998.6 mb 0.01 in0.3 mm 0.00 in0.0 mm 0.02 in0.5 mm
08:24 PM 61.2°F16.2°C 58.6°F14.8°C 91% 5.0 mph SSW8.0 kmh SSW 6.0 mph9.7 kmh 29.49 in998.6 mb 0.01 in0.3 mm 0.00 in0.0 mm 0.02 in0.5 mm
08:26 PM 61.1°F16.2°C 58.5°F14.7°C 91% 4.0 mph SSW6.4 kmh SSW 6.0 mph9.7 kmh 29.50 in999.0 mb 0.01 in0.3 mm 0.00 in0.0 mm 0.02 in0.5 mm
08:28 PM 61.0°F16.1°C 58.4°F14.7°C 91% 5.0 mph S8.0 kmh S 6.0 mph9.7 kmh 29.50 in999.0 mb 0.01 in0.3 mm 0.00 in0.0 mm 0.02 in0.5 mm
08:30 PM 61.0°F16.1°C 58.4°F14.7°C 91% 3.0 mph S4.8 kmh S 3.0 mph4.8 kmh 29.51 in999.3 mb 0.00 in0.0 mm 0.00 in0.0 mm 0.02 in0.5 mm
08:32 PM 60.9°F16.1°C 58.3°F14.6°C 91% 4.0 mph S6.4 kmh S 6.0 mph9.7 kmh 29.51 in999.3 mb 0.00 in0.0 mm 0.00 in0.0 mm 0.02 in0.5 mm
08:34 PM 60.9°F16.1°C 58.6°F14.8°C 92% 3.0 mph SSW4.8 kmh SSW 6.0 mph9.7 kmh 29.51 in999.3 mb 0.00 in0.0 mm 0.00 in0.0 mm 0.02 in0.5 mm
08:36 PM 60.8°F16.0°C 58.5°F14.7°C 92% 9.0 mph S14.5 kmh S 9.0 mph14.5 kmh 29.52 in999.7 mb 0.00 in0.0 mm 0.00 in0.0 mm 0.02 in0.5 mm
08:38 PM 60.8°F16.0°C 58.5°F14.7°C 92% 6.0 mph SSW9.7 kmh SSW 9.0 mph14.5 kmh 29.51 in999.3 mb 0.00 in0.0 mm 0.00 in0.0 mm 0.02 in0.5 mm
08:40 PM 60.7°F15.9°C 58.4°F14.7°C 92% 4.0 mph SSW6.4 kmh SSW 9.0 mph14.5 kmh 29.51 in999.3 mb 0.00 in0.0 mm 0.00 in0.0 mm 0.02 in0.5 mm
08:42 PM 60.7°F15.9°C 58.4°F14.7°C 92% 6.0 mph SSW9.7 kmh SSW 9.0 mph14.5 kmh 29.51 in999.3 mb 0.00 in0.0 mm 0.00 in0.0 mm 0.02 in0.5 mm
08:44 PM 60.7°F15.9°C 58.4°F14.7°C 92% 3.0 mph S4.8 kmh S 9.0 mph14.5 kmh 29.51 in999.3 mb 0.00 in0.0 mm 0.00 in0.0 mm 0.02 in0.5 mm
08:46 PM 60.6°F15.9°C 58.3°F14.6°C 92% 7.0 mph S11.3 kmh S 9.0 mph14.5 kmh 29.51 in999.3 mb 0.00 in0.0 mm 0.00 in0.0 mm 0.02 in0.5 mm
08:48 PM 60.6°F15.9°C 58.3°F14.6°C 92% 4.0 mph SW6.4 kmh SW 9.0 mph14.5 kmh 29.51 in999.3 mb 0.00 in0.0 mm 0.00 in0.0 mm 0.02 in0.5 mm
08:50 PM 60.6°F15.9°C 58.3°F14.6°C 92% Calm Calm 9.0 mph14.5 kmh 29.51 in999.3 mb 0.00 in0.0 mm 0.00 in0.0 mm 0.02 in0.5 mm
08:52 PM 60.6°F15.9°C 58.3°F14.6°C 92% Calm Calm 9.0 mph14.5 kmh 29.52 in999.7 mb 0.00 in0.0 mm 0.00 in0.0 mm 0.02 in0.5 mm
08:54 PM 60.6°F15.9°C 58.3°F14.6°C 92% 2.0 mph SW3.2 kmh SW 9.0 mph14.5 kmh 29.51 in999.3 mb 0.00 in0.0 mm 0.00 in0.0 mm 0.02 in0.5 mm
08:56 PM 60.6°F15.9°C 58.3°F14.6°C 92% Calm Calm 9.0 mph14.5 kmh 29.52 in999.7 mb 0.00 in0.0 mm 0.00 in0.0 mm 0.02 in0.5 mm
08:58 PM 60.6°F15.9°C 58.3°F14.6°C 92% 4.0 mph NW6.4 kmh NW 9.0 mph14.5 kmh 29.54 in1000.3 mb 0.00 in0.0 mm 0.00 in0.0 mm 0.02 in0.5 mm
09:00 PM 60.6°F15.9°C 58.3°F14.6°C 92% 7.0 mph NW11.3 kmh NW 11.0 mph17.7 kmh 29.56 in1001.0 mb 0.00 in0.0 mm 0.00 in0.0 mm 0.02 in0.5 mm
09:02 PM 60.7°F15.9°C 58.4°F14.7°C 92% 5.0 mph NW8.0 kmh NW 7.0 mph11.3 kmh 29.55 in1000.7 mb 0.00 in0.0 mm 0.00 in0.0 mm 0.02 in0.5 mm
09:04 PM 60.7°F15.9°C 58.7°F14.8°C 93% 6.0 mph NW9.7 kmh NW 15.0 mph24.1 kmh 29.55 in1000.7 mb 0.00 in0.0 mm 0.00 in0.0 mm 0.02 in0.5 mm
09:06 PM 60.9°F16.1°C 58.9°F14.9°C 93% 8.0 mph NNW12.9 kmh NNW 15.0 mph24.1 kmh 29.55 in1000.7 mb 0.00 in0.0 mm 0.00 in0.0 mm 0.02 in0.5 mm
09:08 PM 61.1°F16.2°C 59.1°F15.1°C 93% 4.0 mph NW6.4 kmh NW 15.0 mph24.1 kmh 29.55 in1000.7 mb 0.00 in0.0 mm 0.00 in0.0 mm 0.02 in0.5 mm
09:10 PM 61.3°F16.3°C 58.7°F14.8°C 91% 12.0 mph NW19.3 kmh NW 15.0 mph24.1 kmh 29.55 in1000.7 mb 0.00 in0.0 mm 0.00 in0.0 mm 0.02 in0.5 mm
09:12 PM 61.2°F16.2°C 57.3°F14.1°C 87% 5.0 mph NNW8.0 kmh NNW 18.0 mph29.0 kmh 29.56 in1001.0 mb 0.00 in0.0 mm 0.00 in0.0 mm 0.02 in0.5 mm
09:14 PM 61.2°F16.2°C 56.3°F13.5°C 84% 10.0 mph N16.1 kmh N 23.0 mph37.0 kmh 29.56 in1001.0 mb 0.00 in0.0 mm 0.00 in0.0 mm 0.02 in0.5 mm
09:16 PM 61.2°F16.2°C 55.3°F12.9°C 81% Calm Calm 23.0 mph37.0 kmh 29.56 in1001.0 mb 0.00 in0.0 mm 0.00 in0.0 mm 0.02 in0.5 mm
09:18 PM 61.1°F16.2°C 54.2°F12.3°C 78% 7.0 mph NW11.3 kmh NW 23.0 mph37.0 kmh 29.57 in1001.4 mb 0.00 in0.0 mm 0.00 in0.0 mm 0.02 in0.5 mm
09:20 PM 61.0°F16.1°C 53.4°F11.9°C 76% 11.0 mph NW17.7 kmh NW 23.0 mph37.0 kmh 29.57 in1001.4 mb 0.00 in0.0 mm 0.00 in0.0 mm 0.02 in0.5 mm
09:22 PM 60.9°F16.1°C 52.9°F11.6°C 75% 3.0 mph NW4.8 kmh NW 23.0 mph37.0 kmh 29.58 in1001.7 mb 0.00 in0.0 mm 0.00 in0.0 mm 0.02 in0.5 mm
09:24 PM 60.8°F16.0°C 52.5°F11.4°C 74% 10.0 mph NNW16.1 kmh NNW 23.0 mph37.0 kmh 29.58 in1001.7 mb 0.00 in0.0 mm 0.00 in0.0 mm 0.02 in0.5 mm
09:26 PM 60.7°F15.9°C 52.0°F11.1°C 73% 3.0 mph NW4.8 kmh NW 23.0 mph37.0 kmh 29.58 in1001.7 mb 0.00 in0.0 mm 0.00 in0.0 mm 0.02 in0.5 mm
09:28 PM 60.5°F15.8°C 51.4°F10.8°C 72% 8.0 mph N12.9 kmh N 23.0 mph37.0 kmh 29.58 in1001.7 mb 0.00 in0.0 mm 0.00 in0.0 mm 0.02 in0.5 mm
09:30 PM 60.4°F15.8°C 51.0°F10.6°C 71% 3.0 mph NNE4.8 kmh NNE 23.0 mph37.0 kmh 29.59 in1002.0 mb 0.00 in0.0 mm 0.00 in0.0 mm 0.02 in0.5 mm
09:32 PM 60.2°F15.7°C 50.8°F10.4°C 71% 5.0 mph NNW8.0 kmh NNW 14.0 mph22.5 kmh 29.60 in1002.4 mb 0.00 in0.0 mm 0.00 in0.0 mm 0.02 in0.5 mm
09:34 PM 60.1°F15.6°C 50.7°F10.4°C 71% 9.0 mph NW14.5 kmh NW 16.0 mph25.7 kmh 29.60 in1002.4 mb 0.00 in0.0 mm 0.00 in0.0 mm 0.02 in0.5 mm
09:36 PM 60.0°F15.6°C 50.2°F10.1°C 70% 6.0 mph NW9.7 kmh NW 18.0 mph29.0 kmh 29.60 in1002.4 mb 0.00 in0.0 mm 0.00 in0.0 mm 0.02 in0.5 mm
09:38 PM 60.0°F15.6°C 50.2°F10.1°C 70% 17.0 mph NW27.4 kmh NW 18.0 mph29.0 kmh 29.59 in1002.0 mb 0.00 in0.0 mm 0.00 in0.0 mm 0.02 in0.5 mm
09:40 PM 59.9°F15.5°C 49.7°F9.8°C 69% 5.0 mph W8.0 kmh W 18.0 mph29.0 kmh 29.60 in1002.4 mb 0.00 in0.0 mm 0.00 in0.0 mm 0.02 in0.5 mm
09:42 PM 59.8°F15.4°C 50.0°F10.0°C 70% 10.0 mph NW16.1 kmh NW 18.0 mph29.0 kmh 29.60 in1002.4 mb 0.00 in0.0 mm 0.00 in0.0 mm 0.02 in0.5 mm
09:44 PM 59.8°F15.4°C 50.0°F10.0°C 70% 3.0 mph NW4.8 kmh NW 18.0 mph29.0 kmh 29.60 in1002.4 mb 0.00 in0.0 mm 0.00 in0.0 mm 0.02 in0.5 mm
09:46 PM 59.7°F15.4°C 50.7°F10.4°C 72% 7.0 mph NW11.3 kmh NW 18.0 mph29.0 kmh 29.60 in1002.4 mb 0.00 in0.0 mm 0.00 in0.0 mm 0.02 in0.5 mm
09:48 PM 59.6°F15.3°C 49.8°F9.9°C 70% 9.0 mph N14.5 kmh N 18.0 mph29.0 kmh 29.60 in1002.4 mb 0.00 in0.0 mm 0.00 in0.0 mm 0.02 in0.5 mm
09:50 PM 59.6°F15.3°C 50.2°F10.1°C 71% 3.0 mph NW4.8 kmh NW 18.0 mph29.0 kmh 29.60 in1002.4 mb 0.00 in0.0 mm 0.00 in0.0 mm 0.02 in0.5 mm
09:52 PM 59.5°F15.3°C 50.5°F10.3°C 72% 6.0 mph WNW9.7 kmh WNW 18.0 mph29.0 kmh 29.60 in1002.4 mb 0.00 in0.0 mm 0.00 in0.0 mm 0.02 in0.5 mm
09:54 PM 59.5°F15.3°C 50.1°F10.1°C 71% 4.0 mph NNW6.4 kmh NNW 18.0 mph29.0 kmh 29.60 in1002.4 mb 0.00 in0.0 mm 0.00 in0.0 mm 0.02 in0.5 mm
09:56 PM 59.4°F15.2°C 49.6°F9.8°C 70% 12.0 mph N19.3 kmh N 18.0 mph29.0 kmh 29.61 in1002.7 mb 0.00 in0.0 mm 0.00 in0.0 mm 0.02 in0.5 mm
09:58 PM 59.4°F15.2°C 49.6°F9.8°C 70% 4.0 mph NE6.4 kmh NE 19.0 mph30.6 kmh 29.61 in1002.7 mb 0.00 in0.0 mm 0.00 in0.0 mm 0.02 in0.5 mm
10:00 PM 59.3°F15.2°C 49.5°F9.7°C 70% 2.0 mph NNW3.2 kmh NNW 9.0 mph14.5 kmh 29.62 in1003.0 mb 0.00 in0.0 mm 0.00 in0.0 mm 0.02 in0.5 mm
10:02 PM 59.2°F15.1°C 49.4°F9.7°C 70% 6.0 mph N9.7 kmh N 14.0 mph22.5 kmh 29.62 in1003.0 mb 0.00 in0.0 mm 0.00 in0.0 mm 0.02 in0.5 mm
10:04 PM 59.1°F15.1°C 49.0°F9.4°C 69% 5.0 mph N8.0 kmh N 14.0 mph22.5 kmh 29.61 in1002.7 mb 0.00 in0.0 mm 0.00 in0.0 mm 0.02 in0.5 mm
10:06 PM 59.0°F15.0°C 48.5°F9.2°C 68% 5.0 mph N8.0 kmh N 14.0 mph22.5 kmh 29.61 in1002.7 mb 0.00 in0.0 mm 0.00 in0.0 mm 0.02 in0.5 mm
10:08 PM 59.0°F15.0°C 48.5°F9.2°C 68% 4.0 mph N6.4 kmh N 14.0 mph22.5 kmh 29.61 in1002.7 mb 0.00 in0.0 mm 0.00 in0.0 mm 0.02 in0.5 mm
10:10 PM 58.9°F14.9°C 48.8°F9.3°C 69% 4.0 mph NE6.4 kmh NE 14.0 mph22.5 kmh 29.61 in1002.7 mb 0.00 in0.0 mm 0.00 in0.0 mm 0.02 in0.5 mm
10:12 PM 58.8°F14.9°C 48.7°F9.3°C 69% 3.0 mph N4.8 kmh N 14.0 mph22.5 kmh 29.61 in1002.7 mb 0.00 in0.0 mm 0.00 in0.0 mm 0.02 in0.5 mm
10:14 PM 58.7°F14.8°C 48.6°F9.2°C 69% 7.0 mph N11.3 kmh N 14.0 mph22.5 kmh 29.61 in1002.7 mb 0.00 in0.0 mm 0.00 in0.0 mm 0.02 in0.5 mm
10:16 PM 58.6°F14.8°C 48.5°F9.2°C 69% 3.0 mph NW4.8 kmh NW 14.0 mph22.5 kmh 29.61 in1002.7 mb 0.00 in0.0 mm 0.00 in0.0 mm 0.02 in0.5 mm
10:18 PM 58.5°F14.7°C 48.4°F9.1°C 69% 3.0 mph N4.8 kmh N 14.0 mph22.5 kmh 29.61 in1002.7 mb 0.00 in0.0 mm 0.00 in0.0 mm 0.02 in0.5 mm
10:20 PM 58.4°F14.7°C 47.9°F8.8°C 68% 4.0 mph N6.4 kmh N 14.0 mph22.5 kmh 29.61 in1002.7 mb 0.00 in0.0 mm 0.00 in0.0 mm 0.02 in0.5 mm
10:22 PM 58.3°F14.6°C 47.8°F8.8°C 68% 5.0 mph NNE8.0 kmh NNE 14.0 mph22.5 kmh 29.61 in1002.7 mb 0.00 in0.0 mm 0.00 in0.0 mm 0.02 in0.5 mm
10:24 PM 58.2°F14.6°C 48.1°F8.9°C 69% 5.0 mph N8.0 kmh N 14.0 mph22.5 kmh 29.61 in1002.7 mb 0.00 in0.0 mm 0.00 in0.0 mm 0.02 in0.5 mm
10:26 PM 58.2°F14.6°C 47.7°F8.7°C 68% 4.0 mph N6.4 kmh N 14.0 mph22.5 kmh 29.61 in1002.7 mb 0.00 in0.0 mm 0.00 in0.0 mm 0.02 in0.5 mm
10:28 PM 58.0°F14.4°C 47.5°F8.6°C 68% 3.0 mph N4.8 kmh N 14.0 mph22.5 kmh 29.62 in1003.0 mb 0.00 in0.0 mm 0.00 in0.0 mm 0.02 in0.5 mm
10:30 PM 57.9°F14.4°C 47.8°F8.8°C 69% 2.0 mph N3.2 kmh N 2.0 mph3.2 kmh 29.62 in1003.0 mb 0.00 in0.0 mm 0.00 in0.0 mm 0.02 in0.5 mm
10:32 PM 57.8°F14.3°C 47.3°F8.5°C 68% 3.0 mph NNW4.8 kmh NNW 7.0 mph11.3 kmh 29.61 in1002.7 mb 0.00 in0.0 mm 0.00 in0.0 mm 0.02 in0.5 mm
10:34 PM 57.7°F14.3°C 47.2°F8.4°C 68% 1.0 mph NNW1.6 kmh NNW 7.0 mph11.3 kmh 29.61 in1002.7 mb 0.00 in0.0 mm 0.00 in0.0 mm 0.02 in0.5 mm
10:36 PM 57.6°F14.2°C 47.5°F8.6°C 69% 4.0 mph NNW6.4 kmh NNW 7.0 mph11.3 kmh 29.60 in1002.4 mb 0.00 in0.0 mm 0.00 in0.0 mm 0.02 in0.5 mm
10:38 PM 57.5°F14.2°C 47.4°F8.6°C 69% 3.0 mph NW4.8 kmh NW 7.0 mph11.3 kmh 29.61 in1002.7 mb 0.00 in0.0 mm 0.00 in0.0 mm 0.02 in0.5 mm
10:40 PM 57.4°F14.1°C 47.3°F8.5°C 69% 5.0 mph N8.0 kmh N 10.0 mph16.1 kmh 29.61 in1002.7 mb 0.00 in0.0 mm 0.00 in0.0 mm 0.02 in0.5 mm
10:42 PM 57.3°F14.1°C 46.8°F8.2°C 68% 1.0 mph N1.6 kmh N 10.0 mph16.1 kmh 29.61 in1002.7 mb 0.00 in0.0 mm 0.00 in0.0 mm 0.02 in0.5 mm
10:44 PM 57.3°F14.1°C 46.8°F8.2°C 68% Calm Calm 10.0 mph16.1 kmh 29.61 in1002.7 mb 0.00 in0.0 mm 0.00 in0.0 mm 0.02 in0.5 mm
10:46 PM 57.2°F14.0°C 46.8°F8.2°C 68% 5.0 mph N8.0 kmh N 10.0 mph16.1 kmh 29.60 in1002.4 mb 0.00 in0.0 mm 0.00 in0.0 mm 0.02 in0.5 mm
10:48 PM 57.1°F13.9°C 46.7°F8.2°C 68% 1.0 mph N1.6 kmh N 10.0 mph16.1 kmh 29.61 in1002.7 mb 0.00 in0.0 mm 0.00 in0.0 mm 0.02 in0.5 mm
10:50 PM 57.0°F13.9°C 46.6°F8.1°C 68% 2.0 mph N3.2 kmh N 10.0 mph16.1 kmh 29.61 in1002.7 mb 0.00 in0.0 mm 0.00 in0.0 mm 0.02 in0.5 mm
10:52 PM 56.9°F13.8°C 46.5°F8.1°C 68% 1.0 mph N1.6 kmh N 10.0 mph16.1 kmh 29.61 in1002.7 mb 0.00 in0.0 mm 0.00 in0.0 mm 0.02 in0.5 mm
10:54 PM 56.9°F13.8°C 46.5°F8.1°C 68% 1.0 mph N1.6 kmh N 10.0 mph16.1 kmh 29.61 in1002.7 mb 0.00 in0.0 mm 0.00 in0.0 mm 0.02 in0.5 mm
10:56 PM 56.8°F13.8°C 46.4°F8.0°C 68% Calm Calm 10.0 mph16.1 kmh 29.61 in1002.7 mb 0.00 in0.0 mm 0.00 in0.0 mm 0.02 in0.5 mm
10:58 PM 56.8°F13.8°C 46.4°F8.0°C 68% Calm Calm 10.0 mph16.1 kmh 29.61 in1002.7 mb 0.00 in0.0 mm 0.00 in0.0 mm 0.02 in0.5 mm
11:00 PM 56.7°F13.7°C 46.7°F8.2°C 69% Calm Calm -- 29.61 in1002.7 mb 0.00 in0.0 mm 0.00 in0.0 mm 0.02 in0.5 mm
11:02 PM 56.6°F13.7°C 46.2°F7.9°C 68% 4.0 mph N6.4 kmh N 9.0 mph14.5 kmh 29.61 in1002.7 mb 0.00 in0.0 mm 0.00 in0.0 mm 0.02 in0.5 mm
11:04 PM 56.5°F13.6°C 46.1°F7.8°C 68% 3.0 mph N4.8 kmh N 9.0 mph14.5 kmh 29.62 in1003.0 mb 0.00 in0.0 mm 0.00 in0.0 mm 0.02 in0.5 mm
11:06 PM 56.4°F13.6°C 46.0°F7.8°C 68% 6.0 mph NW9.7 kmh NW 9.0 mph14.5 kmh 29.62 in1003.0 mb 0.00 in0.0 mm 0.00 in0.0 mm 0.02 in0.5 mm
11:08 PM 56.4°F13.6°C 45.6°F7.6°C 67% 2.0 mph NW3.2 kmh NW 9.0 mph14.5 kmh 29.62 in1003.0 mb 0.00 in0.0 mm 0.00 in0.0 mm 0.02 in0.5 mm
11:10 PM 56.3°F13.5°C 45.1°F7.3°C 66% 4.0 mph NNE6.4 kmh NNE 9.0 mph14.5 kmh 29.62 in1003.0 mb 0.00 in0.0 mm 0.00 in0.0 mm 0.02 in0.5 mm
11:12 PM 56.2°F13.4°C 45.0°F7.2°C 66% 4.0 mph NNW6.4 kmh NNW 9.0 mph14.5 kmh 29.63 in1003.4 mb 0.00 in0.0 mm 0.00 in0.0 mm 0.02 in0.5 mm
11:14 PM 56.2°F13.4°C 45.0°F7.2°C 66% 4.0 mph N6.4 kmh N 9.0 mph14.5 kmh 29.63 in1003.4 mb 0.00 in0.0 mm 0.00 in0.0 mm 0.02 in0.5 mm
11:16 PM 56.2°F13.4°C 45.0°F7.2°C 66% 2.0 mph N3.2 kmh N 9.0 mph14.5 kmh 29.63 in1003.4 mb 0.00 in0.0 mm 0.00 in0.0 mm 0.02 in0.5 mm
11:18 PM 56.1°F13.4°C 44.9°F7.2°C 66% 4.0 mph N6.4 kmh N 9.0 mph14.5 kmh 29.63 in1003.4 mb 0.00 in0.0 mm 0.00 in0.0 mm 0.02 in0.5 mm
11:20 PM 56.1°F13.4°C 44.9°F7.2°C 66% 3.0 mph N4.8 kmh N 9.0 mph14.5 kmh 29.64 in1003.7 mb 0.00 in0.0 mm 0.00 in0.0 mm 0.02 in0.5 mm
11:22 PM 56.0°F13.3°C 44.8°F7.1°C 66% 1.0 mph N1.6 kmh N 9.0 mph14.5 kmh 29.63 in1003.4 mb 0.00 in0.0 mm 0.00 in0.0 mm 0.02 in0.5 mm
11:24 PM 56.0°F13.3°C 44.8°F7.1°C 66% 2.0 mph N3.2 kmh N 9.0 mph14.5 kmh 29.64 in1003.7 mb 0.00 in0.0 mm 0.00 in0.0 mm 0.02 in0.5 mm
11:26 PM 55.9°F13.3°C 44.7°F7.1°C 66% Calm Calm 9.0 mph14.5 kmh 29.64 in1003.7 mb 0.00 in0.0 mm 0.00 in0.0 mm 0.02 in0.5 mm
11:28 PM 55.9°F13.3°C 45.1°F7.3°C 67% Calm Calm 9.0 mph14.5 kmh 29.64 in1003.7 mb 0.00 in0.0 mm 0.00 in0.0 mm 0.02 in0.5 mm
11:30 PM 55.8°F13.2°C 44.6°F7.0°C 66% Calm Calm -- 29.64 in1003.7 mb 0.00 in0.0 mm 0.00 in0.0 mm 0.02 in0.5 mm
11:32 PM 55.8°F13.2°C 45.0°F7.2°C 67% Calm Calm -- 29.64 in1003.7 mb 0.00 in0.0 mm 0.00 in0.0 mm 0.02 in0.5 mm
11:34 PM 55.8°F13.2°C 45.0°F7.2°C 67% 3.0 mph N4.8 kmh N 3.0 mph4.8 kmh 29.64 in1003.7 mb 0.00 in0.0 mm 0.00 in0.0 mm 0.02 in0.5 mm
11:36 PM 55.7°F13.2°C 44.9°F7.2°C 67% 2.0 mph N3.2 kmh N 4.0 mph6.4 kmh 29.64 in1003.7 mb 0.00 in0.0 mm 0.00 in0.0 mm 0.02 in0.5 mm
11:38 PM 55.7°F13.2°C 44.9°F7.2°C 67% 1.0 mph N1.6 kmh N 4.0 mph6.4 kmh 29.64 in1003.7 mb 0.00 in0.0 mm 0.00 in0.0 mm 0.02 in0.5 mm
11:40 PM 55.6°F13.1°C 44.4°F6.9°C 66% 3.0 mph N4.8 kmh N 5.0 mph8.0 kmh 29.65 in1004.1 mb 0.00 in0.0 mm 0.00 in0.0 mm 0.02 in0.5 mm
11:42 PM 55.5°F13.1°C 44.7°F7.1°C 67% 3.0 mph N4.8 kmh N 5.0 mph8.0 kmh 29.65 in1004.1 mb 0.00 in0.0 mm 0.00 in0.0 mm 0.02 in0.5 mm
11:44 PM 55.5°F13.1°C 44.3°F6.8°C 66% Calm Calm 5.0 mph8.0 kmh 29.65 in1004.1 mb 0.00 in0.0 mm 0.00 in0.0 mm 0.02 in0.5 mm
11:46 PM 55.4°F13.0°C 44.2°F6.8°C 66% Calm Calm 5.0 mph8.0 kmh 29.64 in1003.7 mb 0.00 in0.0 mm 0.00 in0.0 mm 0.02 in0.5 mm
11:48 PM 55.4°F13.0°C 44.2°F6.8°C 66% Calm Calm 5.0 mph8.0 kmh 29.64 in1003.7 mb 0.00 in0.0 mm 0.00 in0.0 mm 0.02 in0.5 mm
11:50 PM 55.3°F12.9°C 44.5°F6.9°C 67% 1.0 mph NNW1.6 kmh NNW 5.0 mph8.0 kmh 29.64 in1003.7 mb 0.00 in0.0 mm 0.00 in0.0 mm 0.02 in0.5 mm
11:52 PM 55.3°F12.9°C 44.5°F6.9°C 67% Calm Calm 5.0 mph8.0 kmh 29.64 in1003.7 mb 0.00 in0.0 mm 0.00 in0.0 mm 0.02 in0.5 mm
11:54 PM 55.2°F12.9°C 44.1°F6.7°C 66% 2.0 mph NE3.2 kmh NE 5.0 mph8.0 kmh 29.64 in1003.7 mb 0.00 in0.0 mm 0.00 in0.0 mm 0.02 in0.5 mm
11:56 PM 55.1°F12.8°C 44.0°F6.7°C 66% Calm Calm 5.0 mph8.0 kmh 29.65 in1004.1 mb 0.00 in0.0 mm 0.00 in0.0 mm 0.02 in0.5 mm
11:58 PM 55.1°F12.8°C 44.0°F6.7°C 66% 3.0 mph N4.8 kmh N 5.0 mph8.0 kmh 29.65 in1004.1 mb 0.00 in0.0 mm 0.00 in0.0 mm 0.02 in0.5 mm